<?xml version="1.0" encoding="UTF-8" standalone="no" ?>
<gpx xmlns="http://www.topografix.com/GPX/1/1" xmlns:xsi="http://www.w3.org/2001/XMLSchema-instance" xsi:schemaLocation="http://www.topografix.com/GPX/1/1 http://www.topografix.com/GPX/1/1/gpx.xsd" version="1.1" creator="VisuGPX - https://www.visugpx.com">
  <metadata>
    <name>Trail des Orris 2014</name>
    <desc><![CDATA[Parcours du trail des Orris 2014 (19km, 700m D /D-) organisé par l\'association SNPC09 (Sports Natures Pyrénées Cathares) ]]></desc>
  </metadata>
  <trk>
    <name><![CDATA[Trail des Orris 2014_1]]></name>
    <trkseg>
      <trkpt lat="42.9584" lon="1.86267">
        <ele>476</ele>
        <time>2014-11-09T10:04:45Z</time>
      </trkpt>
      <trkpt lat="42.9586" lon="1.86241">
        <ele>480</ele>
        <time>2014-11-09T10:04:53Z</time>
      </trkpt>
      <trkpt lat="42.95869" lon="1.86217">
        <ele>480</ele>
        <time>2014-11-09T10:04:59Z</time>
      </trkpt>
      <trkpt lat="42.95879" lon="1.86194">
        <ele>480</ele>
        <time>2014-11-09T10:05:04Z</time>
      </trkpt>
      <trkpt lat="42.95887" lon="1.86174">
        <ele>480</ele>
        <time>2014-11-09T10:05:09Z</time>
      </trkpt>
      <trkpt lat="42.95894" lon="1.86145">
        <ele>480</ele>
        <time>2014-11-09T10:05:14Z</time>
      </trkpt>
      <trkpt lat="42.95901" lon="1.86127">
        <ele>480</ele>
        <time>2014-11-09T10:05:20Z</time>
      </trkpt>
      <trkpt lat="42.95907" lon="1.86107">
        <ele>481</ele>
        <time>2014-11-09T10:05:25Z</time>
      </trkpt>
      <trkpt lat="42.95908" lon="1.86081">
        <ele>482</ele>
        <time>2014-11-09T10:05:30Z</time>
      </trkpt>
      <trkpt lat="42.9591" lon="1.86056">
        <ele>484</ele>
        <time>2014-11-09T10:05:36Z</time>
      </trkpt>
      <trkpt lat="42.95913" lon="1.86031">
        <ele>486</ele>
        <time>2014-11-09T10:05:41Z</time>
      </trkpt>
      <trkpt lat="42.95918" lon="1.86007">
        <ele>488</ele>
        <time>2014-11-09T10:05:46Z</time>
      </trkpt>
      <trkpt lat="42.95921" lon="1.85985">
        <ele>488</ele>
        <time>2014-11-09T10:05:51Z</time>
      </trkpt>
      <trkpt lat="42.95924" lon="1.85962">
        <ele>490</ele>
        <time>2014-11-09T10:05:56Z</time>
      </trkpt>
      <trkpt lat="42.95929" lon="1.85945">
        <ele>494</ele>
        <time>2014-11-09T10:06:01Z</time>
      </trkpt>
      <trkpt lat="42.95929" lon="1.85914">
        <ele>496</ele>
        <time>2014-11-09T10:06:06Z</time>
      </trkpt>
      <trkpt lat="42.95934" lon="1.85889">
        <ele>497</ele>
        <time>2014-11-09T10:06:11Z</time>
      </trkpt>
      <trkpt lat="42.95941" lon="1.8587">
        <ele>497</ele>
        <time>2014-11-09T10:06:16Z</time>
      </trkpt>
      <trkpt lat="42.95948" lon="1.85849">
        <ele>497</ele>
        <time>2014-11-09T10:06:21Z</time>
      </trkpt>
      <trkpt lat="42.95951" lon="1.8583">
        <ele>498</ele>
        <time>2014-11-09T10:06:26Z</time>
      </trkpt>
      <trkpt lat="42.95951" lon="1.85803">
        <ele>498</ele>
        <time>2014-11-09T10:06:31Z</time>
      </trkpt>
      <trkpt lat="42.95959" lon="1.85785">
        <ele>498</ele>
        <time>2014-11-09T10:06:36Z</time>
      </trkpt>
      <trkpt lat="42.95967" lon="1.85763">
        <ele>498</ele>
        <time>2014-11-09T10:06:42Z</time>
      </trkpt>
      <trkpt lat="42.95971" lon="1.85739">
        <ele>500</ele>
        <time>2014-11-09T10:06:47Z</time>
      </trkpt>
      <trkpt lat="42.95977" lon="1.85714">
        <ele>502</ele>
        <time>2014-11-09T10:06:52Z</time>
      </trkpt>
      <trkpt lat="42.95985" lon="1.85695">
        <ele>503</ele>
        <time>2014-11-09T10:06:57Z</time>
      </trkpt>
      <trkpt lat="42.95988" lon="1.85674">
        <ele>504</ele>
        <time>2014-11-09T10:07:03Z</time>
      </trkpt>
      <trkpt lat="42.95993" lon="1.85653">
        <ele>504</ele>
        <time>2014-11-09T10:07:08Z</time>
      </trkpt>
      <trkpt lat="42.95998" lon="1.85627">
        <ele>504</ele>
        <time>2014-11-09T10:07:14Z</time>
      </trkpt>
      <trkpt lat="42.96002" lon="1.85608">
        <ele>505</ele>
        <time>2014-11-09T10:07:19Z</time>
      </trkpt>
      <trkpt lat="42.96004" lon="1.85584">
        <ele>508</ele>
        <time>2014-11-09T10:07:24Z</time>
      </trkpt>
      <trkpt lat="42.96008" lon="1.85553">
        <ele>508</ele>
        <time>2014-11-09T10:07:29Z</time>
      </trkpt>
      <trkpt lat="42.96011" lon="1.85529">
        <ele>508</ele>
        <time>2014-11-09T10:07:35Z</time>
      </trkpt>
      <trkpt lat="42.96014" lon="1.85508">
        <ele>508</ele>
        <time>2014-11-09T10:07:40Z</time>
      </trkpt>
      <trkpt lat="42.96019" lon="1.8548">
        <ele>508</ele>
        <time>2014-11-09T10:07:46Z</time>
      </trkpt>
      <trkpt lat="42.96025" lon="1.85453">
        <ele>508</ele>
        <time>2014-11-09T10:07:51Z</time>
      </trkpt>
      <trkpt lat="42.9603" lon="1.85432">
        <ele>508</ele>
        <time>2014-11-09T10:07:56Z</time>
      </trkpt>
      <trkpt lat="42.96033" lon="1.85407">
        <ele>508</ele>
        <time>2014-11-09T10:08:02Z</time>
      </trkpt>
      <trkpt lat="42.96036" lon="1.85381">
        <ele>508</ele>
        <time>2014-11-09T10:08:07Z</time>
      </trkpt>
      <trkpt lat="42.96041" lon="1.85352">
        <ele>508</ele>
        <time>2014-11-09T10:08:13Z</time>
      </trkpt>
      <trkpt lat="42.96048" lon="1.85322">
        <ele>508</ele>
        <time>2014-11-09T10:08:19Z</time>
      </trkpt>
      <trkpt lat="42.96058" lon="1.85293">
        <ele>509</ele>
        <time>2014-11-09T10:08:24Z</time>
      </trkpt>
      <trkpt lat="42.96065" lon="1.85267">
        <ele>509</ele>
        <time>2014-11-09T10:08:29Z</time>
      </trkpt>
      <trkpt lat="42.96068" lon="1.8524">
        <ele>509</ele>
        <time>2014-11-09T10:08:34Z</time>
      </trkpt>
      <trkpt lat="42.96072" lon="1.85209">
        <ele>507</ele>
        <time>2014-11-09T10:08:40Z</time>
      </trkpt>
      <trkpt lat="42.96074" lon="1.85174">
        <ele>504</ele>
        <time>2014-11-09T10:08:46Z</time>
      </trkpt>
      <trkpt lat="42.96081" lon="1.85142">
        <ele>504</ele>
        <time>2014-11-09T10:08:52Z</time>
      </trkpt>
      <trkpt lat="42.96083" lon="1.8512">
        <ele>503</ele>
        <time>2014-11-09T10:08:57Z</time>
      </trkpt>
      <trkpt lat="42.96086" lon="1.85098">
        <ele>501</ele>
        <time>2014-11-09T10:09:02Z</time>
      </trkpt>
      <trkpt lat="42.96086" lon="1.85075">
        <ele>501</ele>
        <time>2014-11-09T10:09:07Z</time>
      </trkpt>
      <trkpt lat="42.96088" lon="1.85054">
        <ele>501</ele>
        <time>2014-11-09T10:09:12Z</time>
      </trkpt>
      <trkpt lat="42.96091" lon="1.85034">
        <ele>500</ele>
        <time>2014-11-09T10:09:17Z</time>
      </trkpt>
      <trkpt lat="42.96096" lon="1.85013">
        <ele>500</ele>
        <time>2014-11-09T10:09:22Z</time>
      </trkpt>
      <trkpt lat="42.96104" lon="1.84995">
        <ele>500</ele>
        <time>2014-11-09T10:09:27Z</time>
      </trkpt>
      <trkpt lat="42.96107" lon="1.84971">
        <ele>500</ele>
        <time>2014-11-09T10:09:32Z</time>
      </trkpt>
      <trkpt lat="42.96111" lon="1.84952">
        <ele>502</ele>
        <time>2014-11-09T10:09:37Z</time>
      </trkpt>
      <trkpt lat="42.96115" lon="1.84933">
        <ele>503</ele>
        <time>2014-11-09T10:09:43Z</time>
      </trkpt>
      <trkpt lat="42.96119" lon="1.84907">
        <ele>507</ele>
        <time>2014-11-09T10:09:48Z</time>
      </trkpt>
      <trkpt lat="42.96125" lon="1.84887">
        <ele>509</ele>
        <time>2014-11-09T10:09:53Z</time>
      </trkpt>
      <trkpt lat="42.96133" lon="1.84868">
        <ele>510</ele>
        <time>2014-11-09T10:09:58Z</time>
      </trkpt>
      <trkpt lat="42.96143" lon="1.84847">
        <ele>510</ele>
        <time>2014-11-09T10:10:03Z</time>
      </trkpt>
      <trkpt lat="42.96151" lon="1.84825">
        <ele>510</ele>
        <time>2014-11-09T10:10:08Z</time>
      </trkpt>
      <trkpt lat="42.96159" lon="1.84807">
        <ele>510</ele>
        <time>2014-11-09T10:10:13Z</time>
      </trkpt>
      <trkpt lat="42.96164" lon="1.84783">
        <ele>510</ele>
        <time>2014-11-09T10:10:18Z</time>
      </trkpt>
      <trkpt lat="42.9617" lon="1.84765">
        <ele>510</ele>
        <time>2014-11-09T10:10:23Z</time>
      </trkpt>
      <trkpt lat="42.96173" lon="1.84743">
        <ele>510</ele>
        <time>2014-11-09T10:10:28Z</time>
      </trkpt>
      <trkpt lat="42.96176" lon="1.84723">
        <ele>510</ele>
        <time>2014-11-09T10:10:33Z</time>
      </trkpt>
      <trkpt lat="42.96175" lon="1.84702">
        <ele>512</ele>
        <time>2014-11-09T10:10:39Z</time>
      </trkpt>
      <trkpt lat="42.96173" lon="1.84671">
        <ele>514</ele>
        <time>2014-11-09T10:10:44Z</time>
      </trkpt>
      <trkpt lat="42.96167" lon="1.84641">
        <ele>517</ele>
        <time>2014-11-09T10:10:49Z</time>
      </trkpt>
      <trkpt lat="42.9617" lon="1.8462">
        <ele>518</ele>
        <time>2014-11-09T10:10:54Z</time>
      </trkpt>
      <trkpt lat="42.96171" lon="1.84595">
        <ele>518</ele>
        <time>2014-11-09T10:10:59Z</time>
      </trkpt>
      <trkpt lat="42.96175" lon="1.84574">
        <ele>518</ele>
        <time>2014-11-09T10:11:04Z</time>
      </trkpt>
      <trkpt lat="42.96177" lon="1.84553">
        <ele>518</ele>
        <time>2014-11-09T10:11:09Z</time>
      </trkpt>
      <trkpt lat="42.96177" lon="1.84531">
        <ele>518</ele>
        <time>2014-11-09T10:11:14Z</time>
      </trkpt>
      <trkpt lat="42.96178" lon="1.84507">
        <ele>518</ele>
        <time>2014-11-09T10:11:19Z</time>
      </trkpt>
      <trkpt lat="42.96182" lon="1.84484">
        <ele>519</ele>
        <time>2014-11-09T10:11:24Z</time>
      </trkpt>
      <trkpt lat="42.96189" lon="1.84463">
        <ele>522</ele>
        <time>2014-11-09T10:11:29Z</time>
      </trkpt>
      <trkpt lat="42.96193" lon="1.84436">
        <ele>523</ele>
        <time>2014-11-09T10:11:34Z</time>
      </trkpt>
      <trkpt lat="42.96201" lon="1.84413">
        <ele>524</ele>
        <time>2014-11-09T10:11:39Z</time>
      </trkpt>
      <trkpt lat="42.96209" lon="1.8439">
        <ele>524</ele>
        <time>2014-11-09T10:11:44Z</time>
      </trkpt>
      <trkpt lat="42.96215" lon="1.84367">
        <ele>524</ele>
        <time>2014-11-09T10:11:49Z</time>
      </trkpt>
      <trkpt lat="42.9622" lon="1.84343">
        <ele>523</ele>
        <time>2014-11-09T10:11:55Z</time>
      </trkpt>
      <trkpt lat="42.96222" lon="1.84314">
        <ele>520</ele>
        <time>2014-11-09T10:12:00Z</time>
      </trkpt>
      <trkpt lat="42.96221" lon="1.84292">
        <ele>520</ele>
        <time>2014-11-09T10:12:05Z</time>
      </trkpt>
      <trkpt lat="42.96218" lon="1.84275">
        <ele>520</ele>
        <time>2014-11-09T10:12:10Z</time>
      </trkpt>
      <trkpt lat="42.96216" lon="1.84255">
        <ele>520</ele>
        <time>2014-11-09T10:12:15Z</time>
      </trkpt>
      <trkpt lat="42.96215" lon="1.84229">
        <ele>522</ele>
        <time>2014-11-09T10:12:21Z</time>
      </trkpt>
      <trkpt lat="42.96214" lon="1.84208">
        <ele>525</ele>
        <time>2014-11-09T10:12:26Z</time>
      </trkpt>
      <trkpt lat="42.96213" lon="1.84185">
        <ele>529</ele>
        <time>2014-11-09T10:12:31Z</time>
      </trkpt>
      <trkpt lat="42.96213" lon="1.84166">
        <ele>530</ele>
        <time>2014-11-09T10:12:36Z</time>
      </trkpt>
      <trkpt lat="42.96215" lon="1.84146">
        <ele>530</ele>
        <time>2014-11-09T10:12:41Z</time>
      </trkpt>
      <trkpt lat="42.96218" lon="1.84123">
        <ele>530</ele>
        <time>2014-11-09T10:12:46Z</time>
      </trkpt>
      <trkpt lat="42.96223" lon="1.84104">
        <ele>530</ele>
        <time>2014-11-09T10:12:51Z</time>
      </trkpt>
      <trkpt lat="42.96227" lon="1.84083">
        <ele>530</ele>
        <time>2014-11-09T10:12:56Z</time>
      </trkpt>
      <trkpt lat="42.96232" lon="1.84063">
        <ele>530</ele>
        <time>2014-11-09T10:13:01Z</time>
      </trkpt>
      <trkpt lat="42.96236" lon="1.84041">
        <ele>530</ele>
        <time>2014-11-09T10:13:07Z</time>
      </trkpt>
      <trkpt lat="42.96243" lon="1.84015">
        <ele>530</ele>
        <time>2014-11-09T10:13:13Z</time>
      </trkpt>
      <trkpt lat="42.96248" lon="1.83995">
        <ele>530</ele>
        <time>2014-11-09T10:13:18Z</time>
      </trkpt>
      <trkpt lat="42.96252" lon="1.83975">
        <ele>530</ele>
        <time>2014-11-09T10:13:23Z</time>
      </trkpt>
      <trkpt lat="42.96257" lon="1.83955">
        <ele>530</ele>
        <time>2014-11-09T10:13:28Z</time>
      </trkpt>
      <trkpt lat="42.96263" lon="1.83935">
        <ele>530</ele>
        <time>2014-11-09T10:13:33Z</time>
      </trkpt>
      <trkpt lat="42.96268" lon="1.83915">
        <ele>530</ele>
        <time>2014-11-09T10:13:38Z</time>
      </trkpt>
      <trkpt lat="42.96269" lon="1.83897">
        <ele>530</ele>
        <time>2014-11-09T10:13:44Z</time>
      </trkpt>
      <trkpt lat="42.96274" lon="1.83885">
        <ele>530</ele>
        <time>2014-11-09T10:13:49Z</time>
      </trkpt>
      <trkpt lat="42.96276" lon="1.83874">
        <ele>531</ele>
        <time>2014-11-09T10:13:54Z</time>
      </trkpt>
      <trkpt lat="42.96274" lon="1.83857">
        <ele>534</ele>
        <time>2014-11-09T10:13:59Z</time>
      </trkpt>
      <trkpt lat="42.9627" lon="1.83845">
        <ele>537</ele>
        <time>2014-11-09T10:14:04Z</time>
      </trkpt>
      <trkpt lat="42.96269" lon="1.83825">
        <ele>540</ele>
        <time>2014-11-09T10:14:10Z</time>
      </trkpt>
      <trkpt lat="42.9627" lon="1.83808">
        <ele>545</ele>
        <time>2014-11-09T10:14:15Z</time>
      </trkpt>
      <trkpt lat="42.96267" lon="1.83795">
        <ele>550</ele>
        <time>2014-11-09T10:14:20Z</time>
      </trkpt>
      <trkpt lat="42.96268" lon="1.83779">
        <ele>555</ele>
        <time>2014-11-09T10:14:25Z</time>
      </trkpt>
      <trkpt lat="42.96267" lon="1.83765">
        <ele>560</ele>
        <time>2014-11-09T10:14:30Z</time>
      </trkpt>
      <trkpt lat="42.96263" lon="1.83752">
        <ele>562</ele>
        <time>2014-11-09T10:14:35Z</time>
      </trkpt>
      <trkpt lat="42.9626" lon="1.8374">
        <ele>562</ele>
        <time>2014-11-09T10:14:40Z</time>
      </trkpt>
      <trkpt lat="42.96252" lon="1.83723">
        <ele>562</ele>
        <time>2014-11-09T10:14:45Z</time>
      </trkpt>
      <trkpt lat="42.96248" lon="1.8371">
        <ele>562</ele>
        <time>2014-11-09T10:14:50Z</time>
      </trkpt>
      <trkpt lat="42.96245" lon="1.83697">
        <ele>562</ele>
        <time>2014-11-09T10:14:55Z</time>
      </trkpt>
      <trkpt lat="42.96242" lon="1.83686">
        <ele>562</ele>
        <time>2014-11-09T10:15:00Z</time>
      </trkpt>
      <trkpt lat="42.9624" lon="1.83671">
        <ele>564</ele>
        <time>2014-11-09T10:15:05Z</time>
      </trkpt>
      <trkpt lat="42.96235" lon="1.83658">
        <ele>565</ele>
        <time>2014-11-09T10:15:10Z</time>
      </trkpt>
      <trkpt lat="42.9623" lon="1.83647">
        <ele>569</ele>
        <time>2014-11-09T10:15:15Z</time>
      </trkpt>
      <trkpt lat="42.96227" lon="1.83636">
        <ele>570</ele>
        <time>2014-11-09T10:15:20Z</time>
      </trkpt>
      <trkpt lat="42.9622" lon="1.8362">
        <ele>571</ele>
        <time>2014-11-09T10:15:25Z</time>
      </trkpt>
      <trkpt lat="42.96216" lon="1.83603">
        <ele>571</ele>
        <time>2014-11-09T10:15:31Z</time>
      </trkpt>
      <trkpt lat="42.96215" lon="1.8359">
        <ele>571</ele>
        <time>2014-11-09T10:15:36Z</time>
      </trkpt>
      <trkpt lat="42.96212" lon="1.83572">
        <ele>571</ele>
        <time>2014-11-09T10:15:41Z</time>
      </trkpt>
      <trkpt lat="42.96214" lon="1.8356">
        <ele>571</ele>
        <time>2014-11-09T10:15:46Z</time>
      </trkpt>
      <trkpt lat="42.96211" lon="1.83546">
        <ele>572</ele>
        <time>2014-11-09T10:15:52Z</time>
      </trkpt>
      <trkpt lat="42.96208" lon="1.83534">
        <ele>573</ele>
        <time>2014-11-09T10:15:57Z</time>
      </trkpt>
      <trkpt lat="42.96207" lon="1.83524">
        <ele>575</ele>
        <time>2014-11-09T10:16:02Z</time>
      </trkpt>
      <trkpt lat="42.96204" lon="1.83507">
        <ele>575</ele>
        <time>2014-11-09T10:16:07Z</time>
      </trkpt>
      <trkpt lat="42.96202" lon="1.8349">
        <ele>575</ele>
        <time>2014-11-09T10:16:12Z</time>
      </trkpt>
      <trkpt lat="42.96202" lon="1.83476">
        <ele>579</ele>
        <time>2014-11-09T10:16:17Z</time>
      </trkpt>
      <trkpt lat="42.962" lon="1.83463">
        <ele>582</ele>
        <time>2014-11-09T10:16:22Z</time>
      </trkpt>
      <trkpt lat="42.962" lon="1.83449">
        <ele>587</ele>
        <time>2014-11-09T10:16:27Z</time>
      </trkpt>
      <trkpt lat="42.96202" lon="1.83433">
        <ele>591</ele>
        <time>2014-11-09T10:16:32Z</time>
      </trkpt>
      <trkpt lat="42.96207" lon="1.83421">
        <ele>596</ele>
        <time>2014-11-09T10:16:37Z</time>
      </trkpt>
      <trkpt lat="42.96208" lon="1.83407">
        <ele>601</ele>
        <time>2014-11-09T10:16:42Z</time>
      </trkpt>
      <trkpt lat="42.96205" lon="1.83389">
        <ele>601</ele>
        <time>2014-11-09T10:16:47Z</time>
      </trkpt>
      <trkpt lat="42.96204" lon="1.83375">
        <ele>601</ele>
        <time>2014-11-09T10:16:52Z</time>
      </trkpt>
      <trkpt lat="42.96206" lon="1.83359">
        <ele>601</ele>
        <time>2014-11-09T10:16:58Z</time>
      </trkpt>
      <trkpt lat="42.96207" lon="1.83343">
        <ele>602</ele>
        <time>2014-11-09T10:17:03Z</time>
      </trkpt>
      <trkpt lat="42.96208" lon="1.83327">
        <ele>606</ele>
        <time>2014-11-09T10:17:08Z</time>
      </trkpt>
      <trkpt lat="42.96213" lon="1.83313">
        <ele>610</ele>
        <time>2014-11-09T10:17:13Z</time>
      </trkpt>
      <trkpt lat="42.9621" lon="1.83299">
        <ele>610</ele>
        <time>2014-11-09T10:17:18Z</time>
      </trkpt>
      <trkpt lat="42.96208" lon="1.83288">
        <ele>609</ele>
        <time>2014-11-09T10:17:23Z</time>
      </trkpt>
      <trkpt lat="42.96208" lon="1.8328">
        <ele>608</ele>
        <time>2014-11-09T10:17:28Z</time>
      </trkpt>
      <trkpt lat="42.96208" lon="1.83271">
        <ele>608</ele>
        <time>2014-11-09T10:17:33Z</time>
      </trkpt>
      <trkpt lat="42.96208" lon="1.83261">
        <ele>608</ele>
        <time>2014-11-09T10:17:38Z</time>
      </trkpt>
      <trkpt lat="42.96209" lon="1.83252">
        <ele>608</ele>
        <time>2014-11-09T10:17:43Z</time>
      </trkpt>
      <trkpt lat="42.96207" lon="1.83244">
        <ele>608</ele>
        <time>2014-11-09T10:17:48Z</time>
      </trkpt>
      <trkpt lat="42.96206" lon="1.83229">
        <ele>609</ele>
        <time>2014-11-09T10:17:53Z</time>
      </trkpt>
      <trkpt lat="42.96209" lon="1.83215">
        <ele>614</ele>
        <time>2014-11-09T10:17:58Z</time>
      </trkpt>
      <trkpt lat="42.96213" lon="1.832">
        <ele>619</ele>
        <time>2014-11-09T10:18:03Z</time>
      </trkpt>
      <trkpt lat="42.96215" lon="1.83184">
        <ele>622</ele>
        <time>2014-11-09T10:18:08Z</time>
      </trkpt>
      <trkpt lat="42.96218" lon="1.83168">
        <ele>626</ele>
        <time>2014-11-09T10:18:13Z</time>
      </trkpt>
      <trkpt lat="42.96213" lon="1.83146">
        <ele>628</ele>
        <time>2014-11-09T10:18:18Z</time>
      </trkpt>
      <trkpt lat="42.96215" lon="1.83134">
        <ele>629</ele>
        <time>2014-11-09T10:18:23Z</time>
      </trkpt>
      <trkpt lat="42.96214" lon="1.83122">
        <ele>631</ele>
        <time>2014-11-09T10:18:29Z</time>
      </trkpt>
      <trkpt lat="42.96213" lon="1.83116">
        <ele>631</ele>
        <time>2014-11-09T10:18:34Z</time>
      </trkpt>
      <trkpt lat="42.96213" lon="1.8311">
        <ele>631</ele>
        <time>2014-11-09T10:18:39Z</time>
      </trkpt>
      <trkpt lat="42.9621" lon="1.83102">
        <ele>631</ele>
        <time>2014-11-09T10:18:46Z</time>
      </trkpt>
      <trkpt lat="42.9621" lon="1.83089">
        <ele>631</ele>
        <time>2014-11-09T10:18:52Z</time>
      </trkpt>
      <trkpt lat="42.96208" lon="1.83079">
        <ele>632</ele>
        <time>2014-11-09T10:18:58Z</time>
      </trkpt>
      <trkpt lat="42.96208" lon="1.83068">
        <ele>632</ele>
        <time>2014-11-09T10:19:03Z</time>
      </trkpt>
      <trkpt lat="42.9621" lon="1.83057">
        <ele>632</ele>
        <time>2014-11-09T10:19:09Z</time>
      </trkpt>
      <trkpt lat="42.96209" lon="1.83048">
        <ele>632</ele>
        <time>2014-11-09T10:19:16Z</time>
      </trkpt>
      <trkpt lat="42.9621" lon="1.83033">
        <ele>639</ele>
        <time>2014-11-09T10:19:22Z</time>
      </trkpt>
      <trkpt lat="42.96209" lon="1.83024">
        <ele>639</ele>
        <time>2014-11-09T10:19:27Z</time>
      </trkpt>
      <trkpt lat="42.96208" lon="1.83013">
        <ele>639</ele>
        <time>2014-11-09T10:19:32Z</time>
      </trkpt>
      <trkpt lat="42.96206" lon="1.82999">
        <ele>641</ele>
        <time>2014-11-09T10:19:37Z</time>
      </trkpt>
      <trkpt lat="42.96203" lon="1.82985">
        <ele>644</ele>
        <time>2014-11-09T10:19:42Z</time>
      </trkpt>
      <trkpt lat="42.96204" lon="1.82973">
        <ele>646</ele>
        <time>2014-11-09T10:19:47Z</time>
      </trkpt>
      <trkpt lat="42.96202" lon="1.82957">
        <ele>648</ele>
        <time>2014-11-09T10:19:52Z</time>
      </trkpt>
      <trkpt lat="42.96197" lon="1.8294">
        <ele>651</ele>
        <time>2014-11-09T10:19:58Z</time>
      </trkpt>
      <trkpt lat="42.96194" lon="1.82926">
        <ele>655</ele>
        <time>2014-11-09T10:20:03Z</time>
      </trkpt>
      <trkpt lat="42.9619" lon="1.82918">
        <ele>656</ele>
        <time>2014-11-09T10:20:08Z</time>
      </trkpt>
      <trkpt lat="42.96188" lon="1.82907">
        <ele>657</ele>
        <time>2014-11-09T10:20:14Z</time>
      </trkpt>
      <trkpt lat="42.96184" lon="1.82898">
        <ele>658</ele>
        <time>2014-11-09T10:20:19Z</time>
      </trkpt>
      <trkpt lat="42.9618" lon="1.82888">
        <ele>658</ele>
        <time>2014-11-09T10:20:24Z</time>
      </trkpt>
      <trkpt lat="42.96174" lon="1.8288">
        <ele>658</ele>
        <time>2014-11-09T10:20:30Z</time>
      </trkpt>
      <trkpt lat="42.96169" lon="1.82876">
        <ele>658</ele>
        <time>2014-11-09T10:20:35Z</time>
      </trkpt>
      <trkpt lat="42.96161" lon="1.82871">
        <ele>658</ele>
        <time>2014-11-09T10:20:40Z</time>
      </trkpt>
      <trkpt lat="42.96154" lon="1.82862">
        <ele>662</ele>
        <time>2014-11-09T10:20:46Z</time>
      </trkpt>
      <trkpt lat="42.96142" lon="1.82854">
        <ele>665</ele>
        <time>2014-11-09T10:20:51Z</time>
      </trkpt>
      <trkpt lat="42.96132" lon="1.82848">
        <ele>666</ele>
        <time>2014-11-09T10:20:56Z</time>
      </trkpt>
      <trkpt lat="42.96124" lon="1.82842">
        <ele>668</ele>
        <time>2014-11-09T10:21:01Z</time>
      </trkpt>
      <trkpt lat="42.96116" lon="1.82834">
        <ele>669</ele>
        <time>2014-11-09T10:21:06Z</time>
      </trkpt>
      <trkpt lat="42.96108" lon="1.82827">
        <ele>670</ele>
        <time>2014-11-09T10:21:11Z</time>
      </trkpt>
      <trkpt lat="42.96098" lon="1.8282">
        <ele>672</ele>
        <time>2014-11-09T10:21:16Z</time>
      </trkpt>
      <trkpt lat="42.9609" lon="1.82816">
        <ele>673</ele>
        <time>2014-11-09T10:21:21Z</time>
      </trkpt>
      <trkpt lat="42.96081" lon="1.8281">
        <ele>675</ele>
        <time>2014-11-09T10:21:26Z</time>
      </trkpt>
      <trkpt lat="42.96072" lon="1.82807">
        <ele>677</ele>
        <time>2014-11-09T10:21:31Z</time>
      </trkpt>
      <trkpt lat="42.96065" lon="1.82803">
        <ele>678</ele>
        <time>2014-11-09T10:21:36Z</time>
      </trkpt>
      <trkpt lat="42.96058" lon="1.82794">
        <ele>679</ele>
        <time>2014-11-09T10:21:41Z</time>
      </trkpt>
      <trkpt lat="42.96049" lon="1.82787">
        <ele>679</ele>
        <time>2014-11-09T10:21:46Z</time>
      </trkpt>
      <trkpt lat="42.96041" lon="1.82779">
        <ele>679</ele>
        <time>2014-11-09T10:21:51Z</time>
      </trkpt>
      <trkpt lat="42.96032" lon="1.8277">
        <ele>679</ele>
        <time>2014-11-09T10:21:56Z</time>
      </trkpt>
      <trkpt lat="42.96024" lon="1.82764">
        <ele>679</ele>
        <time>2014-11-09T10:22:01Z</time>
      </trkpt>
      <trkpt lat="42.96014" lon="1.82755">
        <ele>682</ele>
        <time>2014-11-09T10:22:06Z</time>
      </trkpt>
      <trkpt lat="42.96006" lon="1.82744">
        <ele>683</ele>
        <time>2014-11-09T10:22:11Z</time>
      </trkpt>
      <trkpt lat="42.95997" lon="1.82733">
        <ele>683</ele>
        <time>2014-11-09T10:22:16Z</time>
      </trkpt>
      <trkpt lat="42.95986" lon="1.82725">
        <ele>683</ele>
        <time>2014-11-09T10:22:21Z</time>
      </trkpt>
      <trkpt lat="42.95976" lon="1.82722">
        <ele>683</ele>
        <time>2014-11-09T10:22:26Z</time>
      </trkpt>
      <trkpt lat="42.95965" lon="1.82718">
        <ele>684</ele>
        <time>2014-11-09T10:22:31Z</time>
      </trkpt>
      <trkpt lat="42.95955" lon="1.82715">
        <ele>689</ele>
        <time>2014-11-09T10:22:36Z</time>
      </trkpt>
      <trkpt lat="42.95945" lon="1.82712">
        <ele>690</ele>
        <time>2014-11-09T10:22:41Z</time>
      </trkpt>
      <trkpt lat="42.95933" lon="1.82714">
        <ele>690</ele>
        <time>2014-11-09T10:22:46Z</time>
      </trkpt>
      <trkpt lat="42.95924" lon="1.82723">
        <ele>690</ele>
        <time>2014-11-09T10:22:51Z</time>
      </trkpt>
      <trkpt lat="42.95915" lon="1.82731">
        <ele>690</ele>
        <time>2014-11-09T10:22:56Z</time>
      </trkpt>
      <trkpt lat="42.95903" lon="1.82733">
        <ele>690</ele>
        <time>2014-11-09T10:23:01Z</time>
      </trkpt>
      <trkpt lat="42.95889" lon="1.82734">
        <ele>695</ele>
        <time>2014-11-09T10:23:06Z</time>
      </trkpt>
      <trkpt lat="42.95875" lon="1.82731">
        <ele>699</ele>
        <time>2014-11-09T10:23:11Z</time>
      </trkpt>
      <trkpt lat="42.95862" lon="1.82717">
        <ele>700</ele>
        <time>2014-11-09T10:23:16Z</time>
      </trkpt>
      <trkpt lat="42.95849" lon="1.82703">
        <ele>700</ele>
        <time>2014-11-09T10:23:21Z</time>
      </trkpt>
      <trkpt lat="42.95839" lon="1.8269">
        <ele>700</ele>
        <time>2014-11-09T10:23:26Z</time>
      </trkpt>
      <trkpt lat="42.95828" lon="1.82683">
        <ele>700</ele>
        <time>2014-11-09T10:23:31Z</time>
      </trkpt>
      <trkpt lat="42.95816" lon="1.82672">
        <ele>696</ele>
        <time>2014-11-09T10:23:36Z</time>
      </trkpt>
      <trkpt lat="42.95807" lon="1.82663">
        <ele>695</ele>
        <time>2014-11-09T10:23:41Z</time>
      </trkpt>
      <trkpt lat="42.95796" lon="1.82658">
        <ele>695</ele>
        <time>2014-11-09T10:23:46Z</time>
      </trkpt>
      <trkpt lat="42.95783" lon="1.82655">
        <ele>696</ele>
        <time>2014-11-09T10:23:51Z</time>
      </trkpt>
      <trkpt lat="42.95774" lon="1.82654">
        <ele>697</ele>
        <time>2014-11-09T10:23:56Z</time>
      </trkpt>
      <trkpt lat="42.9577" lon="1.82643">
        <ele>699</ele>
        <time>2014-11-09T10:24:01Z</time>
      </trkpt>
      <trkpt lat="42.95766" lon="1.82633">
        <ele>699</ele>
        <time>2014-11-09T10:24:06Z</time>
      </trkpt>
      <trkpt lat="42.95759" lon="1.82625">
        <ele>702</ele>
        <time>2014-11-09T10:24:11Z</time>
      </trkpt>
      <trkpt lat="42.95749" lon="1.82614">
        <ele>705</ele>
        <time>2014-11-09T10:24:16Z</time>
      </trkpt>
      <trkpt lat="42.95745" lon="1.82605">
        <ele>708</ele>
        <time>2014-11-09T10:24:21Z</time>
      </trkpt>
      <trkpt lat="42.95746" lon="1.82588">
        <ele>709</ele>
        <time>2014-11-09T10:24:26Z</time>
      </trkpt>
      <trkpt lat="42.95743" lon="1.82575">
        <ele>712</ele>
        <time>2014-11-09T10:24:31Z</time>
      </trkpt>
      <trkpt lat="42.95735" lon="1.82567">
        <ele>715</ele>
        <time>2014-11-09T10:24:36Z</time>
      </trkpt>
      <trkpt lat="42.95727" lon="1.82559">
        <ele>718</ele>
        <time>2014-11-09T10:24:41Z</time>
      </trkpt>
      <trkpt lat="42.95722" lon="1.82545">
        <ele>720</ele>
        <time>2014-11-09T10:24:46Z</time>
      </trkpt>
      <trkpt lat="42.95715" lon="1.82533">
        <ele>721</ele>
        <time>2014-11-09T10:24:52Z</time>
      </trkpt>
      <trkpt lat="42.95707" lon="1.82527">
        <ele>721</ele>
        <time>2014-11-09T10:24:57Z</time>
      </trkpt>
      <trkpt lat="42.95701" lon="1.82526">
        <ele>721</ele>
        <time>2014-11-09T10:25:02Z</time>
      </trkpt>
      <trkpt lat="42.95697" lon="1.8252">
        <ele>721</ele>
        <time>2014-11-09T10:25:07Z</time>
      </trkpt>
      <trkpt lat="42.95697" lon="1.82511">
        <ele>721</ele>
        <time>2014-11-09T10:25:12Z</time>
      </trkpt>
      <trkpt lat="42.957" lon="1.82494">
        <ele>721</ele>
        <time>2014-11-09T10:25:17Z</time>
      </trkpt>
      <trkpt lat="42.95702" lon="1.82477">
        <ele>721</ele>
        <time>2014-11-09T10:25:23Z</time>
      </trkpt>
      <trkpt lat="42.95705" lon="1.82462">
        <ele>725</ele>
        <time>2014-11-09T10:25:28Z</time>
      </trkpt>
      <trkpt lat="42.95707" lon="1.82446">
        <ele>731</ele>
        <time>2014-11-09T10:25:33Z</time>
      </trkpt>
      <trkpt lat="42.95708" lon="1.82434">
        <ele>734</ele>
        <time>2014-11-09T10:25:38Z</time>
      </trkpt>
      <trkpt lat="42.95702" lon="1.82425">
        <ele>737</ele>
        <time>2014-11-09T10:25:43Z</time>
      </trkpt>
      <trkpt lat="42.95696" lon="1.82411">
        <ele>737</ele>
        <time>2014-11-09T10:25:48Z</time>
      </trkpt>
      <trkpt lat="42.95694" lon="1.82396">
        <ele>738</ele>
        <time>2014-11-09T10:25:53Z</time>
      </trkpt>
      <trkpt lat="42.95693" lon="1.82379">
        <ele>738</ele>
        <time>2014-11-09T10:25:58Z</time>
      </trkpt>
      <trkpt lat="42.95692" lon="1.82357">
        <ele>738</ele>
        <time>2014-11-09T10:26:03Z</time>
      </trkpt>
      <trkpt lat="42.95692" lon="1.82337">
        <ele>739</ele>
        <time>2014-11-09T10:26:08Z</time>
      </trkpt>
      <trkpt lat="42.95686" lon="1.82317">
        <ele>739</ele>
        <time>2014-11-09T10:26:13Z</time>
      </trkpt>
      <trkpt lat="42.95686" lon="1.82296">
        <ele>739</ele>
        <time>2014-11-09T10:26:18Z</time>
      </trkpt>
      <trkpt lat="42.95688" lon="1.82274">
        <ele>739</ele>
        <time>2014-11-09T10:26:23Z</time>
      </trkpt>
      <trkpt lat="42.95687" lon="1.82252">
        <ele>739</ele>
        <time>2014-11-09T10:26:28Z</time>
      </trkpt>
      <trkpt lat="42.95686" lon="1.8223">
        <ele>739</ele>
        <time>2014-11-09T10:26:33Z</time>
      </trkpt>
      <trkpt lat="42.95686" lon="1.82206">
        <ele>739</ele>
        <time>2014-11-09T10:26:38Z</time>
      </trkpt>
      <trkpt lat="42.9569" lon="1.82186">
        <ele>739</ele>
        <time>2014-11-09T10:26:43Z</time>
      </trkpt>
      <trkpt lat="42.95692" lon="1.8216">
        <ele>739</ele>
        <time>2014-11-09T10:26:49Z</time>
      </trkpt>
      <trkpt lat="42.9569" lon="1.82133">
        <ele>737</ele>
        <time>2014-11-09T10:26:54Z</time>
      </trkpt>
      <trkpt lat="42.95691" lon="1.82106">
        <ele>736</ele>
        <time>2014-11-09T10:26:59Z</time>
      </trkpt>
      <trkpt lat="42.95689" lon="1.82089">
        <ele>735</ele>
        <time>2014-11-09T10:27:04Z</time>
      </trkpt>
      <trkpt lat="42.95696" lon="1.82075">
        <ele>731</ele>
        <time>2014-11-09T10:27:09Z</time>
      </trkpt>
      <trkpt lat="42.95716" lon="1.82077">
        <ele>726</ele>
        <time>2014-11-09T10:27:14Z</time>
      </trkpt>
      <trkpt lat="42.95731" lon="1.82087">
        <ele>724</ele>
        <time>2014-11-09T10:27:19Z</time>
      </trkpt>
      <trkpt lat="42.95746" lon="1.82097">
        <ele>721</ele>
        <time>2014-11-09T10:27:24Z</time>
      </trkpt>
      <trkpt lat="42.95757" lon="1.82102">
        <ele>719</ele>
        <time>2014-11-09T10:27:29Z</time>
      </trkpt>
      <trkpt lat="42.95776" lon="1.82102">
        <ele>718</ele>
        <time>2014-11-09T10:27:34Z</time>
      </trkpt>
      <trkpt lat="42.95794" lon="1.82102">
        <ele>718</ele>
        <time>2014-11-09T10:27:39Z</time>
      </trkpt>
      <trkpt lat="42.95811" lon="1.82099">
        <ele>717</ele>
        <time>2014-11-09T10:27:44Z</time>
      </trkpt>
      <trkpt lat="42.95826" lon="1.82092">
        <ele>717</ele>
        <time>2014-11-09T10:27:49Z</time>
      </trkpt>
      <trkpt lat="42.95845" lon="1.82091">
        <ele>717</ele>
        <time>2014-11-09T10:27:54Z</time>
      </trkpt>
      <trkpt lat="42.9586" lon="1.82092">
        <ele>715</ele>
        <time>2014-11-09T10:27:59Z</time>
      </trkpt>
      <trkpt lat="42.95878" lon="1.82094">
        <ele>714</ele>
        <time>2014-11-09T10:28:04Z</time>
      </trkpt>
      <trkpt lat="42.959" lon="1.82105">
        <ele>711</ele>
        <time>2014-11-09T10:28:10Z</time>
      </trkpt>
      <trkpt lat="42.95918" lon="1.82113">
        <ele>708</ele>
        <time>2014-11-09T10:28:15Z</time>
      </trkpt>
      <trkpt lat="42.95937" lon="1.82112">
        <ele>707</ele>
        <time>2014-11-09T10:28:20Z</time>
      </trkpt>
      <trkpt lat="42.95955" lon="1.82099">
        <ele>704</ele>
        <time>2014-11-09T10:28:25Z</time>
      </trkpt>
      <trkpt lat="42.95971" lon="1.8208">
        <ele>703</ele>
        <time>2014-11-09T10:28:30Z</time>
      </trkpt>
      <trkpt lat="42.95993" lon="1.82071">
        <ele>700</ele>
        <time>2014-11-09T10:28:35Z</time>
      </trkpt>
      <trkpt lat="42.96011" lon="1.82058">
        <ele>696</ele>
        <time>2014-11-09T10:28:40Z</time>
      </trkpt>
      <trkpt lat="42.96034" lon="1.82053">
        <ele>691</ele>
        <time>2014-11-09T10:28:46Z</time>
      </trkpt>
      <trkpt lat="42.96056" lon="1.82042">
        <ele>685</ele>
        <time>2014-11-09T10:28:51Z</time>
      </trkpt>
      <trkpt lat="42.96055" lon="1.82022">
        <ele>680</ele>
        <time>2014-11-09T10:28:56Z</time>
      </trkpt>
      <trkpt lat="42.96053" lon="1.82002">
        <ele>675</ele>
        <time>2014-11-09T10:29:01Z</time>
      </trkpt>
      <trkpt lat="42.96052" lon="1.81983">
        <ele>674</ele>
        <time>2014-11-09T10:29:06Z</time>
      </trkpt>
      <trkpt lat="42.96049" lon="1.81966">
        <ele>674</ele>
        <time>2014-11-09T10:29:11Z</time>
      </trkpt>
      <trkpt lat="42.96046" lon="1.8195">
        <ele>674</ele>
        <time>2014-11-09T10:29:16Z</time>
      </trkpt>
      <trkpt lat="42.96041" lon="1.81936">
        <ele>674</ele>
        <time>2014-11-09T10:29:21Z</time>
      </trkpt>
      <trkpt lat="42.96036" lon="1.81924">
        <ele>674</ele>
        <time>2014-11-09T10:29:26Z</time>
      </trkpt>
      <trkpt lat="42.96031" lon="1.81912">
        <ele>674</ele>
        <time>2014-11-09T10:29:31Z</time>
      </trkpt>
      <trkpt lat="42.96027" lon="1.81897">
        <ele>675</ele>
        <time>2014-11-09T10:29:36Z</time>
      </trkpt>
      <trkpt lat="42.96023" lon="1.81886">
        <ele>679</ele>
        <time>2014-11-09T10:29:41Z</time>
      </trkpt>
      <trkpt lat="42.96018" lon="1.81873">
        <ele>683</ele>
        <time>2014-11-09T10:29:46Z</time>
      </trkpt>
      <trkpt lat="42.96012" lon="1.81861">
        <ele>685</ele>
        <time>2014-11-09T10:29:51Z</time>
      </trkpt>
      <trkpt lat="42.96006" lon="1.81851">
        <ele>687</ele>
        <time>2014-11-09T10:29:56Z</time>
      </trkpt>
      <trkpt lat="42.96" lon="1.8184">
        <ele>690</ele>
        <time>2014-11-09T10:30:01Z</time>
      </trkpt>
      <trkpt lat="42.95993" lon="1.81828">
        <ele>691</ele>
        <time>2014-11-09T10:30:06Z</time>
      </trkpt>
      <trkpt lat="42.95984" lon="1.81818">
        <ele>692</ele>
        <time>2014-11-09T10:30:11Z</time>
      </trkpt>
      <trkpt lat="42.95977" lon="1.81808">
        <ele>693</ele>
        <time>2014-11-09T10:30:16Z</time>
      </trkpt>
      <trkpt lat="42.95969" lon="1.81797">
        <ele>695</ele>
        <time>2014-11-09T10:30:21Z</time>
      </trkpt>
      <trkpt lat="42.9596" lon="1.81786">
        <ele>697</ele>
        <time>2014-11-09T10:30:26Z</time>
      </trkpt>
      <trkpt lat="42.95951" lon="1.81778">
        <ele>698</ele>
        <time>2014-11-09T10:30:31Z</time>
      </trkpt>
      <trkpt lat="42.95942" lon="1.81767">
        <ele>700</ele>
        <time>2014-11-09T10:30:36Z</time>
      </trkpt>
      <trkpt lat="42.9593" lon="1.81758">
        <ele>701</ele>
        <time>2014-11-09T10:30:41Z</time>
      </trkpt>
      <trkpt lat="42.95918" lon="1.8175">
        <ele>701</ele>
        <time>2014-11-09T10:30:46Z</time>
      </trkpt>
      <trkpt lat="42.95904" lon="1.81743">
        <ele>701</ele>
        <time>2014-11-09T10:30:51Z</time>
      </trkpt>
      <trkpt lat="42.95891" lon="1.81738">
        <ele>701</ele>
        <time>2014-11-09T10:30:56Z</time>
      </trkpt>
      <trkpt lat="42.95878" lon="1.81737">
        <ele>701</ele>
        <time>2014-11-09T10:31:01Z</time>
      </trkpt>
      <trkpt lat="42.95864" lon="1.81735">
        <ele>701</ele>
        <time>2014-11-09T10:31:06Z</time>
      </trkpt>
      <trkpt lat="42.95853" lon="1.81725">
        <ele>699</ele>
        <time>2014-11-09T10:31:11Z</time>
      </trkpt>
      <trkpt lat="42.95844" lon="1.8171">
        <ele>698</ele>
        <time>2014-11-09T10:31:16Z</time>
      </trkpt>
      <trkpt lat="42.95836" lon="1.81693">
        <ele>698</ele>
        <time>2014-11-09T10:31:21Z</time>
      </trkpt>
      <trkpt lat="42.95829" lon="1.81678">
        <ele>699</ele>
        <time>2014-11-09T10:31:26Z</time>
      </trkpt>
      <trkpt lat="42.95822" lon="1.81663">
        <ele>699</ele>
        <time>2014-11-09T10:31:31Z</time>
      </trkpt>
      <trkpt lat="42.95815" lon="1.81653">
        <ele>703</ele>
        <time>2014-11-09T10:31:36Z</time>
      </trkpt>
      <trkpt lat="42.95804" lon="1.81647">
        <ele>705</ele>
        <time>2014-11-09T10:31:41Z</time>
      </trkpt>
      <trkpt lat="42.95796" lon="1.8164">
        <ele>705</ele>
        <time>2014-11-09T10:31:46Z</time>
      </trkpt>
      <trkpt lat="42.95787" lon="1.81632">
        <ele>708</ele>
        <time>2014-11-09T10:31:51Z</time>
      </trkpt>
      <trkpt lat="42.95775" lon="1.81625">
        <ele>709</ele>
        <time>2014-11-09T10:31:56Z</time>
      </trkpt>
      <trkpt lat="42.95764" lon="1.81618">
        <ele>712</ele>
        <time>2014-11-09T10:32:01Z</time>
      </trkpt>
      <trkpt lat="42.95752" lon="1.81611">
        <ele>713</ele>
        <time>2014-11-09T10:32:06Z</time>
      </trkpt>
      <trkpt lat="42.9574" lon="1.81602">
        <ele>714</ele>
        <time>2014-11-09T10:32:11Z</time>
      </trkpt>
      <trkpt lat="42.95729" lon="1.81592">
        <ele>715</ele>
        <time>2014-11-09T10:32:16Z</time>
      </trkpt>
      <trkpt lat="42.95718" lon="1.81583">
        <ele>716</ele>
        <time>2014-11-09T10:32:21Z</time>
      </trkpt>
      <trkpt lat="42.95706" lon="1.81573">
        <ele>716</ele>
        <time>2014-11-09T10:32:26Z</time>
      </trkpt>
      <trkpt lat="42.95696" lon="1.81567">
        <ele>716</ele>
        <time>2014-11-09T10:32:31Z</time>
      </trkpt>
      <trkpt lat="42.95684" lon="1.81565">
        <ele>716</ele>
        <time>2014-11-09T10:32:36Z</time>
      </trkpt>
      <trkpt lat="42.95677" lon="1.81557">
        <ele>717</ele>
        <time>2014-11-09T10:32:41Z</time>
      </trkpt>
      <trkpt lat="42.95673" lon="1.8154">
        <ele>719</ele>
        <time>2014-11-09T10:32:46Z</time>
      </trkpt>
      <trkpt lat="42.95671" lon="1.81521">
        <ele>719</ele>
        <time>2014-11-09T10:32:51Z</time>
      </trkpt>
      <trkpt lat="42.95666" lon="1.81499">
        <ele>719</ele>
        <time>2014-11-09T10:32:56Z</time>
      </trkpt>
      <trkpt lat="42.95665" lon="1.8148">
        <ele>719</ele>
        <time>2014-11-09T10:33:01Z</time>
      </trkpt>
      <trkpt lat="42.95666" lon="1.81463">
        <ele>719</ele>
        <time>2014-11-09T10:33:06Z</time>
      </trkpt>
      <trkpt lat="42.95669" lon="1.81444">
        <ele>719</ele>
        <time>2014-11-09T10:33:11Z</time>
      </trkpt>
      <trkpt lat="42.95668" lon="1.81425">
        <ele>719</ele>
        <time>2014-11-09T10:33:16Z</time>
      </trkpt>
      <trkpt lat="42.95668" lon="1.81404">
        <ele>720</ele>
        <time>2014-11-09T10:33:21Z</time>
      </trkpt>
      <trkpt lat="42.95663" lon="1.81385">
        <ele>724</ele>
        <time>2014-11-09T10:33:26Z</time>
      </trkpt>
      <trkpt lat="42.95659" lon="1.81368">
        <ele>726</ele>
        <time>2014-11-09T10:33:31Z</time>
      </trkpt>
      <trkpt lat="42.95654" lon="1.81352">
        <ele>726</ele>
        <time>2014-11-09T10:33:36Z</time>
      </trkpt>
      <trkpt lat="42.95652" lon="1.81334">
        <ele>730</ele>
        <time>2014-11-09T10:33:41Z</time>
      </trkpt>
      <trkpt lat="42.95655" lon="1.81315">
        <ele>733</ele>
        <time>2014-11-09T10:33:46Z</time>
      </trkpt>
      <trkpt lat="42.9566" lon="1.81297">
        <ele>733</ele>
        <time>2014-11-09T10:33:51Z</time>
      </trkpt>
      <trkpt lat="42.95666" lon="1.81278">
        <ele>733</ele>
        <time>2014-11-09T10:33:56Z</time>
      </trkpt>
      <trkpt lat="42.9567" lon="1.81257">
        <ele>733</ele>
        <time>2014-11-09T10:34:01Z</time>
      </trkpt>
      <trkpt lat="42.95676" lon="1.81239">
        <ele>733</ele>
        <time>2014-11-09T10:34:06Z</time>
      </trkpt>
      <trkpt lat="42.95679" lon="1.81218">
        <ele>733</ele>
        <time>2014-11-09T10:34:11Z</time>
      </trkpt>
      <trkpt lat="42.9568" lon="1.81201">
        <ele>732</ele>
        <time>2014-11-09T10:34:16Z</time>
      </trkpt>
      <trkpt lat="42.95679" lon="1.81185">
        <ele>732</ele>
        <time>2014-11-09T10:34:21Z</time>
      </trkpt>
      <trkpt lat="42.95678" lon="1.81163">
        <ele>732</ele>
        <time>2014-11-09T10:34:26Z</time>
      </trkpt>
      <trkpt lat="42.95675" lon="1.81146">
        <ele>732</ele>
        <time>2014-11-09T10:34:31Z</time>
      </trkpt>
      <trkpt lat="42.9567" lon="1.8113">
        <ele>731</ele>
        <time>2014-11-09T10:34:36Z</time>
      </trkpt>
      <trkpt lat="42.95665" lon="1.81119">
        <ele>731</ele>
        <time>2014-11-09T10:34:41Z</time>
      </trkpt>
      <trkpt lat="42.95662" lon="1.811">
        <ele>731</ele>
        <time>2014-11-09T10:34:46Z</time>
      </trkpt>
      <trkpt lat="42.95663" lon="1.81078">
        <ele>733</ele>
        <time>2014-11-09T10:34:51Z</time>
      </trkpt>
      <trkpt lat="42.95659" lon="1.81061">
        <ele>733</ele>
        <time>2014-11-09T10:34:56Z</time>
      </trkpt>
      <trkpt lat="42.95656" lon="1.81045">
        <ele>733</ele>
        <time>2014-11-09T10:35:01Z</time>
      </trkpt>
      <trkpt lat="42.95653" lon="1.81024">
        <ele>734</ele>
        <time>2014-11-09T10:35:06Z</time>
      </trkpt>
      <trkpt lat="42.95652" lon="1.81005">
        <ele>734</ele>
        <time>2014-11-09T10:35:11Z</time>
      </trkpt>
      <trkpt lat="42.9565" lon="1.80987">
        <ele>737</ele>
        <time>2014-11-09T10:35:16Z</time>
      </trkpt>
      <trkpt lat="42.95651" lon="1.8097">
        <ele>740</ele>
        <time>2014-11-09T10:35:21Z</time>
      </trkpt>
      <trkpt lat="42.95649" lon="1.80951">
        <ele>740</ele>
        <time>2014-11-09T10:35:26Z</time>
      </trkpt>
      <trkpt lat="42.95648" lon="1.80936">
        <ele>740</ele>
        <time>2014-11-09T10:35:31Z</time>
      </trkpt>
      <trkpt lat="42.95649" lon="1.8092">
        <ele>740</ele>
        <time>2014-11-09T10:35:36Z</time>
      </trkpt>
      <trkpt lat="42.95651" lon="1.80905">
        <ele>742</ele>
        <time>2014-11-09T10:35:41Z</time>
      </trkpt>
      <trkpt lat="42.95652" lon="1.80885">
        <ele>744</ele>
        <time>2014-11-09T10:35:46Z</time>
      </trkpt>
      <trkpt lat="42.95658" lon="1.80866">
        <ele>744</ele>
        <time>2014-11-09T10:35:51Z</time>
      </trkpt>
      <trkpt lat="42.95666" lon="1.80852">
        <ele>747</ele>
        <time>2014-11-09T10:35:56Z</time>
      </trkpt>
      <trkpt lat="42.95674" lon="1.80838">
        <ele>747</ele>
        <time>2014-11-09T10:36:01Z</time>
      </trkpt>
      <trkpt lat="42.95685" lon="1.80823">
        <ele>747</ele>
        <time>2014-11-09T10:36:06Z</time>
      </trkpt>
      <trkpt lat="42.95695" lon="1.80809">
        <ele>747</ele>
        <time>2014-11-09T10:36:11Z</time>
      </trkpt>
      <trkpt lat="42.95701" lon="1.80792">
        <ele>747</ele>
        <time>2014-11-09T10:36:16Z</time>
      </trkpt>
      <trkpt lat="42.95708" lon="1.80773">
        <ele>748</ele>
        <time>2014-11-09T10:36:21Z</time>
      </trkpt>
      <trkpt lat="42.95721" lon="1.80763">
        <ele>748</ele>
        <time>2014-11-09T10:36:26Z</time>
      </trkpt>
      <trkpt lat="42.95737" lon="1.80758">
        <ele>748</ele>
        <time>2014-11-09T10:36:31Z</time>
      </trkpt>
      <trkpt lat="42.95754" lon="1.80752">
        <ele>748</ele>
        <time>2014-11-09T10:36:36Z</time>
      </trkpt>
      <trkpt lat="42.95766" lon="1.80738">
        <ele>748</ele>
        <time>2014-11-09T10:36:41Z</time>
      </trkpt>
      <trkpt lat="42.95777" lon="1.80719">
        <ele>748</ele>
        <time>2014-11-09T10:36:46Z</time>
      </trkpt>
      <trkpt lat="42.95784" lon="1.80696">
        <ele>745</ele>
        <time>2014-11-09T10:36:51Z</time>
      </trkpt>
      <trkpt lat="42.95791" lon="1.80676">
        <ele>744</ele>
        <time>2014-11-09T10:36:56Z</time>
      </trkpt>
      <trkpt lat="42.95799" lon="1.80655">
        <ele>743</ele>
        <time>2014-11-09T10:37:01Z</time>
      </trkpt>
      <trkpt lat="42.95808" lon="1.80635">
        <ele>741</ele>
        <time>2014-11-09T10:37:06Z</time>
      </trkpt>
      <trkpt lat="42.95818" lon="1.80614">
        <ele>740</ele>
        <time>2014-11-09T10:37:11Z</time>
      </trkpt>
      <trkpt lat="42.95831" lon="1.80596">
        <ele>740</ele>
        <time>2014-11-09T10:37:16Z</time>
      </trkpt>
      <trkpt lat="42.95844" lon="1.80579">
        <ele>740</ele>
        <time>2014-11-09T10:37:21Z</time>
      </trkpt>
      <trkpt lat="42.95859" lon="1.80568">
        <ele>739</ele>
        <time>2014-11-09T10:37:26Z</time>
      </trkpt>
      <trkpt lat="42.95874" lon="1.80556">
        <ele>736</ele>
        <time>2014-11-09T10:37:31Z</time>
      </trkpt>
      <trkpt lat="42.95887" lon="1.80542">
        <ele>735</ele>
        <time>2014-11-09T10:37:36Z</time>
      </trkpt>
      <trkpt lat="42.95896" lon="1.80524">
        <ele>735</ele>
        <time>2014-11-09T10:37:41Z</time>
      </trkpt>
      <trkpt lat="42.95906" lon="1.80504">
        <ele>735</ele>
        <time>2014-11-09T10:37:46Z</time>
      </trkpt>
      <trkpt lat="42.95916" lon="1.80482">
        <ele>735</ele>
        <time>2014-11-09T10:37:51Z</time>
      </trkpt>
      <trkpt lat="42.95924" lon="1.80459">
        <ele>735</ele>
        <time>2014-11-09T10:37:56Z</time>
      </trkpt>
      <trkpt lat="42.95934" lon="1.80438">
        <ele>735</ele>
        <time>2014-11-09T10:38:01Z</time>
      </trkpt>
      <trkpt lat="42.95946" lon="1.80413">
        <ele>732</ele>
        <time>2014-11-09T10:38:07Z</time>
      </trkpt>
      <trkpt lat="42.95959" lon="1.80393">
        <ele>730</ele>
        <time>2014-11-09T10:38:12Z</time>
      </trkpt>
      <trkpt lat="42.95972" lon="1.80377">
        <ele>727</ele>
        <time>2014-11-09T10:38:17Z</time>
      </trkpt>
      <trkpt lat="42.95987" lon="1.80364">
        <ele>726</ele>
        <time>2014-11-09T10:38:22Z</time>
      </trkpt>
      <trkpt lat="42.96002" lon="1.80348">
        <ele>725</ele>
        <time>2014-11-09T10:38:27Z</time>
      </trkpt>
      <trkpt lat="42.96013" lon="1.80324">
        <ele>725</ele>
        <time>2014-11-09T10:38:32Z</time>
      </trkpt>
      <trkpt lat="42.96027" lon="1.80303">
        <ele>724</ele>
        <time>2014-11-09T10:38:37Z</time>
      </trkpt>
      <trkpt lat="42.96043" lon="1.80284">
        <ele>721</ele>
        <time>2014-11-09T10:38:42Z</time>
      </trkpt>
      <trkpt lat="42.96054" lon="1.80263">
        <ele>716</ele>
        <time>2014-11-09T10:38:47Z</time>
      </trkpt>
      <trkpt lat="42.96054" lon="1.80236">
        <ele>710</ele>
        <time>2014-11-09T10:38:52Z</time>
      </trkpt>
      <trkpt lat="42.96059" lon="1.80205">
        <ele>705</ele>
        <time>2014-11-09T10:38:57Z</time>
      </trkpt>
      <trkpt lat="42.96068" lon="1.80183">
        <ele>703</ele>
        <time>2014-11-09T10:39:02Z</time>
      </trkpt>
      <trkpt lat="42.96073" lon="1.80162">
        <ele>702</ele>
        <time>2014-11-09T10:39:07Z</time>
      </trkpt>
      <trkpt lat="42.96083" lon="1.80145">
        <ele>701</ele>
        <time>2014-11-09T10:39:12Z</time>
      </trkpt>
      <trkpt lat="42.96095" lon="1.80131">
        <ele>700</ele>
        <time>2014-11-09T10:39:17Z</time>
      </trkpt>
      <trkpt lat="42.961" lon="1.80114">
        <ele>699</ele>
        <time>2014-11-09T10:39:22Z</time>
      </trkpt>
      <trkpt lat="42.96099" lon="1.80096">
        <ele>698</ele>
        <time>2014-11-09T10:39:27Z</time>
      </trkpt>
      <trkpt lat="42.96097" lon="1.80076">
        <ele>696</ele>
        <time>2014-11-09T10:39:32Z</time>
      </trkpt>
      <trkpt lat="42.96098" lon="1.8006">
        <ele>695</ele>
        <time>2014-11-09T10:39:37Z</time>
      </trkpt>
      <trkpt lat="42.96096" lon="1.80039">
        <ele>695</ele>
        <time>2014-11-09T10:39:42Z</time>
      </trkpt>
      <trkpt lat="42.96096" lon="1.80018">
        <ele>695</ele>
        <time>2014-11-09T10:39:47Z</time>
      </trkpt>
      <trkpt lat="42.96097" lon="1.79997">
        <ele>697</ele>
        <time>2014-11-09T10:39:52Z</time>
      </trkpt>
      <trkpt lat="42.96098" lon="1.79972">
        <ele>697</ele>
        <time>2014-11-09T10:39:57Z</time>
      </trkpt>
      <trkpt lat="42.96095" lon="1.79942">
        <ele>697</ele>
        <time>2014-11-09T10:40:02Z</time>
      </trkpt>
      <trkpt lat="42.961" lon="1.79917">
        <ele>700</ele>
        <time>2014-11-09T10:40:07Z</time>
      </trkpt>
      <trkpt lat="42.96105" lon="1.79895">
        <ele>701</ele>
        <time>2014-11-09T10:40:12Z</time>
      </trkpt>
      <trkpt lat="42.96106" lon="1.79868">
        <ele>701</ele>
        <time>2014-11-09T10:40:17Z</time>
      </trkpt>
      <trkpt lat="42.96111" lon="1.79843">
        <ele>701</ele>
        <time>2014-11-09T10:40:22Z</time>
      </trkpt>
      <trkpt lat="42.96114" lon="1.79818">
        <ele>700</ele>
        <time>2014-11-09T10:40:27Z</time>
      </trkpt>
      <trkpt lat="42.96126" lon="1.79797">
        <ele>699</ele>
        <time>2014-11-09T10:40:32Z</time>
      </trkpt>
      <trkpt lat="42.96134" lon="1.7977">
        <ele>695</ele>
        <time>2014-11-09T10:40:37Z</time>
      </trkpt>
      <trkpt lat="42.96144" lon="1.79747">
        <ele>693</ele>
        <time>2014-11-09T10:40:42Z</time>
      </trkpt>
      <trkpt lat="42.96152" lon="1.79727">
        <ele>688</ele>
        <time>2014-11-09T10:40:47Z</time>
      </trkpt>
      <trkpt lat="42.96156" lon="1.79702">
        <ele>683</ele>
        <time>2014-11-09T10:40:52Z</time>
      </trkpt>
      <trkpt lat="42.9616" lon="1.79682">
        <ele>677</ele>
        <time>2014-11-09T10:40:57Z</time>
      </trkpt>
      <trkpt lat="42.96164" lon="1.79661">
        <ele>672</ele>
        <time>2014-11-09T10:41:02Z</time>
      </trkpt>
      <trkpt lat="42.96165" lon="1.79638">
        <ele>667</ele>
        <time>2014-11-09T10:41:07Z</time>
      </trkpt>
      <trkpt lat="42.96167" lon="1.7961">
        <ele>664</ele>
        <time>2014-11-09T10:41:12Z</time>
      </trkpt>
      <trkpt lat="42.96165" lon="1.79584">
        <ele>664</ele>
        <time>2014-11-09T10:41:17Z</time>
      </trkpt>
      <trkpt lat="42.96165" lon="1.7956">
        <ele>664</ele>
        <time>2014-11-09T10:41:22Z</time>
      </trkpt>
      <trkpt lat="42.96166" lon="1.79531">
        <ele>664</ele>
        <time>2014-11-09T10:41:28Z</time>
      </trkpt>
      <trkpt lat="42.96169" lon="1.79509">
        <ele>664</ele>
        <time>2014-11-09T10:41:33Z</time>
      </trkpt>
      <trkpt lat="42.96176" lon="1.79492">
        <ele>664</ele>
        <time>2014-11-09T10:41:38Z</time>
      </trkpt>
      <trkpt lat="42.96179" lon="1.7947">
        <ele>665</ele>
        <time>2014-11-09T10:41:43Z</time>
      </trkpt>
      <trkpt lat="42.96177" lon="1.79448">
        <ele>665</ele>
        <time>2014-11-09T10:41:49Z</time>
      </trkpt>
      <trkpt lat="42.96179" lon="1.79427">
        <ele>665</ele>
        <time>2014-11-09T10:41:54Z</time>
      </trkpt>
      <trkpt lat="42.96183" lon="1.79402">
        <ele>665</ele>
        <time>2014-11-09T10:41:59Z</time>
      </trkpt>
      <trkpt lat="42.96195" lon="1.79377">
        <ele>665</ele>
        <time>2014-11-09T10:42:04Z</time>
      </trkpt>
      <trkpt lat="42.96209" lon="1.79359">
        <ele>664</ele>
        <time>2014-11-09T10:42:09Z</time>
      </trkpt>
      <trkpt lat="42.96213" lon="1.79349">
        <ele>660</ele>
        <time>2014-11-09T10:42:14Z</time>
      </trkpt>
      <trkpt lat="42.96208" lon="1.79333">
        <ele>658</ele>
        <time>2014-11-09T10:42:19Z</time>
      </trkpt>
      <trkpt lat="42.96204" lon="1.79308">
        <ele>655</ele>
        <time>2014-11-09T10:42:24Z</time>
      </trkpt>
      <trkpt lat="42.96199" lon="1.79274">
        <ele>655</ele>
        <time>2014-11-09T10:42:29Z</time>
      </trkpt>
      <trkpt lat="42.96206" lon="1.79251">
        <ele>653</ele>
        <time>2014-11-09T10:42:34Z</time>
      </trkpt>
      <trkpt lat="42.96214" lon="1.79234">
        <ele>648</ele>
        <time>2014-11-09T10:42:39Z</time>
      </trkpt>
      <trkpt lat="42.96213" lon="1.79209">
        <ele>645</ele>
        <time>2014-11-09T10:42:44Z</time>
      </trkpt>
      <trkpt lat="42.96218" lon="1.79187">
        <ele>644</ele>
        <time>2014-11-09T10:42:49Z</time>
      </trkpt>
      <trkpt lat="42.9622" lon="1.79164">
        <ele>641</ele>
        <time>2014-11-09T10:42:54Z</time>
      </trkpt>
      <trkpt lat="42.96224" lon="1.79139">
        <ele>639</ele>
        <time>2014-11-09T10:42:59Z</time>
      </trkpt>
      <trkpt lat="42.96223" lon="1.7912">
        <ele>638</ele>
        <time>2014-11-09T10:43:05Z</time>
      </trkpt>
      <trkpt lat="42.96239" lon="1.79107">
        <ele>638</ele>
        <time>2014-11-09T10:43:10Z</time>
      </trkpt>
      <trkpt lat="42.9625" lon="1.79089">
        <ele>638</ele>
        <time>2014-11-09T10:43:15Z</time>
      </trkpt>
      <trkpt lat="42.96255" lon="1.79071">
        <ele>638</ele>
        <time>2014-11-09T10:43:20Z</time>
      </trkpt>
      <trkpt lat="42.96268" lon="1.79054">
        <ele>638</ele>
        <time>2014-11-09T10:43:25Z</time>
      </trkpt>
      <trkpt lat="42.96283" lon="1.79038">
        <ele>638</ele>
        <time>2014-11-09T10:43:30Z</time>
      </trkpt>
      <trkpt lat="42.96294" lon="1.79021">
        <ele>638</ele>
        <time>2014-11-09T10:43:35Z</time>
      </trkpt>
      <trkpt lat="42.96305" lon="1.78999">
        <ele>638</ele>
        <time>2014-11-09T10:43:40Z</time>
      </trkpt>
      <trkpt lat="42.96319" lon="1.78983">
        <ele>638</ele>
        <time>2014-11-09T10:43:46Z</time>
      </trkpt>
      <trkpt lat="42.96337" lon="1.78975">
        <ele>634</ele>
        <time>2014-11-09T10:43:51Z</time>
      </trkpt>
      <trkpt lat="42.9635" lon="1.78958">
        <ele>631</ele>
        <time>2014-11-09T10:43:56Z</time>
      </trkpt>
      <trkpt lat="42.96341" lon="1.78937">
        <ele>627</ele>
        <time>2014-11-09T10:44:01Z</time>
      </trkpt>
      <trkpt lat="42.9634" lon="1.78904">
        <ele>624</ele>
        <time>2014-11-09T10:44:06Z</time>
      </trkpt>
      <trkpt lat="42.96348" lon="1.78886">
        <ele>624</ele>
        <time>2014-11-09T10:44:11Z</time>
      </trkpt>
      <trkpt lat="42.9636" lon="1.78876">
        <ele>624</ele>
        <time>2014-11-09T10:44:16Z</time>
      </trkpt>
      <trkpt lat="42.9637" lon="1.78864">
        <ele>624</ele>
        <time>2014-11-09T10:44:21Z</time>
      </trkpt>
      <trkpt lat="42.96372" lon="1.78841">
        <ele>627</ele>
        <time>2014-11-09T10:44:27Z</time>
      </trkpt>
      <trkpt lat="42.96374" lon="1.78819">
        <ele>629</ele>
        <time>2014-11-09T10:44:32Z</time>
      </trkpt>
      <trkpt lat="42.96381" lon="1.78796">
        <ele>629</ele>
        <time>2014-11-09T10:44:37Z</time>
      </trkpt>
      <trkpt lat="42.96381" lon="1.78772">
        <ele>629</ele>
        <time>2014-11-09T10:44:42Z</time>
      </trkpt>
      <trkpt lat="42.96381" lon="1.7875">
        <ele>629</ele>
        <time>2014-11-09T10:44:47Z</time>
      </trkpt>
      <trkpt lat="42.96385" lon="1.78726">
        <ele>629</ele>
        <time>2014-11-09T10:44:52Z</time>
      </trkpt>
      <trkpt lat="42.96392" lon="1.78704">
        <ele>629</ele>
        <time>2014-11-09T10:44:57Z</time>
      </trkpt>
      <trkpt lat="42.96405" lon="1.78687">
        <ele>625</ele>
        <time>2014-11-09T10:45:02Z</time>
      </trkpt>
      <trkpt lat="42.96403" lon="1.78667">
        <ele>622</ele>
        <time>2014-11-09T10:45:07Z</time>
      </trkpt>
      <trkpt lat="42.96401" lon="1.78646">
        <ele>621</ele>
        <time>2014-11-09T10:45:12Z</time>
      </trkpt>
      <trkpt lat="42.96395" lon="1.78626">
        <ele>619</ele>
        <time>2014-11-09T10:45:18Z</time>
      </trkpt>
      <trkpt lat="42.9639" lon="1.78604">
        <ele>619</ele>
        <time>2014-11-09T10:45:23Z</time>
      </trkpt>
      <trkpt lat="42.96391" lon="1.78582">
        <ele>619</ele>
        <time>2014-11-09T10:45:28Z</time>
      </trkpt>
      <trkpt lat="42.96393" lon="1.78559">
        <ele>619</ele>
        <time>2014-11-09T10:45:33Z</time>
      </trkpt>
      <trkpt lat="42.96397" lon="1.78536">
        <ele>615</ele>
        <time>2014-11-09T10:45:38Z</time>
      </trkpt>
      <trkpt lat="42.96397" lon="1.78506">
        <ele>613</ele>
        <time>2014-11-09T10:45:44Z</time>
      </trkpt>
      <trkpt lat="42.964" lon="1.7848">
        <ele>612</ele>
        <time>2014-11-09T10:45:49Z</time>
      </trkpt>
      <trkpt lat="42.96397" lon="1.78453">
        <ele>612</ele>
        <time>2014-11-09T10:45:55Z</time>
      </trkpt>
      <trkpt lat="42.9639" lon="1.78438">
        <ele>612</ele>
        <time>2014-11-09T10:46:00Z</time>
      </trkpt>
      <trkpt lat="42.96381" lon="1.78419">
        <ele>612</ele>
        <time>2014-11-09T10:46:05Z</time>
      </trkpt>
      <trkpt lat="42.96374" lon="1.784">
        <ele>612</ele>
        <time>2014-11-09T10:46:10Z</time>
      </trkpt>
      <trkpt lat="42.9637" lon="1.78377">
        <ele>612</ele>
        <time>2014-11-09T10:46:15Z</time>
      </trkpt>
      <trkpt lat="42.96367" lon="1.7835">
        <ele>612</ele>
        <time>2014-11-09T10:46:21Z</time>
      </trkpt>
      <trkpt lat="42.96363" lon="1.7833">
        <ele>616</ele>
        <time>2014-11-09T10:46:26Z</time>
      </trkpt>
      <trkpt lat="42.96359" lon="1.78307">
        <ele>617</ele>
        <time>2014-11-09T10:46:31Z</time>
      </trkpt>
      <trkpt lat="42.96355" lon="1.78288">
        <ele>617</ele>
        <time>2014-11-09T10:46:36Z</time>
      </trkpt>
      <trkpt lat="42.96353" lon="1.78269">
        <ele>617</ele>
        <time>2014-11-09T10:46:41Z</time>
      </trkpt>
      <trkpt lat="42.96347" lon="1.78255">
        <ele>617</ele>
        <time>2014-11-09T10:46:46Z</time>
      </trkpt>
      <trkpt lat="42.96342" lon="1.78237">
        <ele>617</ele>
        <time>2014-11-09T10:46:51Z</time>
      </trkpt>
      <trkpt lat="42.96335" lon="1.78224">
        <ele>615</ele>
        <time>2014-11-09T10:46:56Z</time>
      </trkpt>
      <trkpt lat="42.96326" lon="1.78215">
        <ele>614</ele>
        <time>2014-11-09T10:47:01Z</time>
      </trkpt>
      <trkpt lat="42.9631" lon="1.78206">
        <ele>611</ele>
        <time>2014-11-09T10:47:07Z</time>
      </trkpt>
      <trkpt lat="42.96296" lon="1.78207">
        <ele>608</ele>
        <time>2014-11-09T10:47:12Z</time>
      </trkpt>
      <trkpt lat="42.9628" lon="1.78209">
        <ele>605</ele>
        <time>2014-11-09T10:47:17Z</time>
      </trkpt>
      <trkpt lat="42.96263" lon="1.78215">
        <ele>602</ele>
        <time>2014-11-09T10:47:22Z</time>
      </trkpt>
      <trkpt lat="42.96244" lon="1.78222">
        <ele>599</ele>
        <time>2014-11-09T10:47:27Z</time>
      </trkpt>
      <trkpt lat="42.96224" lon="1.78229">
        <ele>595</ele>
        <time>2014-11-09T10:47:32Z</time>
      </trkpt>
      <trkpt lat="42.96205" lon="1.78237">
        <ele>592</ele>
        <time>2014-11-09T10:47:37Z</time>
      </trkpt>
      <trkpt lat="42.96185" lon="1.78243">
        <ele>589</ele>
        <time>2014-11-09T10:47:42Z</time>
      </trkpt>
      <trkpt lat="42.96163" lon="1.78245">
        <ele>586</ele>
        <time>2014-11-09T10:47:47Z</time>
      </trkpt>
      <trkpt lat="42.96141" lon="1.78253">
        <ele>582</ele>
        <time>2014-11-09T10:47:53Z</time>
      </trkpt>
      <trkpt lat="42.9612" lon="1.78256">
        <ele>578</ele>
        <time>2014-11-09T10:47:59Z</time>
      </trkpt>
      <trkpt lat="42.96102" lon="1.7826">
        <ele>577</ele>
        <time>2014-11-09T10:48:04Z</time>
      </trkpt>
      <trkpt lat="42.96081" lon="1.78268">
        <ele>573</ele>
        <time>2014-11-09T10:48:10Z</time>
      </trkpt>
      <trkpt lat="42.96068" lon="1.78276">
        <ele>571</ele>
        <time>2014-11-09T10:48:15Z</time>
      </trkpt>
      <trkpt lat="42.96049" lon="1.78281">
        <ele>566</ele>
        <time>2014-11-09T10:48:21Z</time>
      </trkpt>
      <trkpt lat="42.96034" lon="1.78286">
        <ele>561</ele>
        <time>2014-11-09T10:48:26Z</time>
      </trkpt>
      <trkpt lat="42.96021" lon="1.78291">
        <ele>556</ele>
        <time>2014-11-09T10:48:31Z</time>
      </trkpt>
      <trkpt lat="42.96008" lon="1.78297">
        <ele>551</ele>
        <time>2014-11-09T10:48:36Z</time>
      </trkpt>
      <trkpt lat="42.95993" lon="1.78294">
        <ele>545</ele>
        <time>2014-11-09T10:48:41Z</time>
      </trkpt>
      <trkpt lat="42.95978" lon="1.78295">
        <ele>539</ele>
        <time>2014-11-09T10:48:46Z</time>
      </trkpt>
      <trkpt lat="42.95964" lon="1.78289">
        <ele>533</ele>
        <time>2014-11-09T10:48:52Z</time>
      </trkpt>
      <trkpt lat="42.9595" lon="1.78293">
        <ele>528</ele>
        <time>2014-11-09T10:48:57Z</time>
      </trkpt>
      <trkpt lat="42.95935" lon="1.78297">
        <ele>523</ele>
        <time>2014-11-09T10:49:02Z</time>
      </trkpt>
      <trkpt lat="42.95921" lon="1.78305">
        <ele>520</ele>
        <time>2014-11-09T10:49:07Z</time>
      </trkpt>
      <trkpt lat="42.95908" lon="1.78315">
        <ele>520</ele>
        <time>2014-11-09T10:49:12Z</time>
      </trkpt>
      <trkpt lat="42.95897" lon="1.7833">
        <ele>520</ele>
        <time>2014-11-09T10:49:17Z</time>
      </trkpt>
      <trkpt lat="42.95888" lon="1.78349">
        <ele>520</ele>
        <time>2014-11-09T10:49:22Z</time>
      </trkpt>
      <trkpt lat="42.95881" lon="1.78369">
        <ele>523</ele>
        <time>2014-11-09T10:49:27Z</time>
      </trkpt>
      <trkpt lat="42.95871" lon="1.78391">
        <ele>525</ele>
        <time>2014-11-09T10:49:32Z</time>
      </trkpt>
      <trkpt lat="42.95859" lon="1.78411">
        <ele>527</ele>
        <time>2014-11-09T10:49:37Z</time>
      </trkpt>
      <trkpt lat="42.95853" lon="1.78432">
        <ele>528</ele>
        <time>2014-11-09T10:49:42Z</time>
      </trkpt>
      <trkpt lat="42.95841" lon="1.7845">
        <ele>528</ele>
        <time>2014-11-09T10:49:47Z</time>
      </trkpt>
      <trkpt lat="42.95831" lon="1.78466">
        <ele>528</ele>
        <time>2014-11-09T10:49:52Z</time>
      </trkpt>
      <trkpt lat="42.95824" lon="1.78478">
        <ele>528</ele>
        <time>2014-11-09T10:49:57Z</time>
      </trkpt>
      <trkpt lat="42.95819" lon="1.78489">
        <ele>528</ele>
        <time>2014-11-09T10:50:02Z</time>
      </trkpt>
      <trkpt lat="42.95813" lon="1.78497">
        <ele>528</ele>
        <time>2014-11-09T10:50:07Z</time>
      </trkpt>
      <trkpt lat="42.95805" lon="1.78505">
        <ele>528</ele>
        <time>2014-11-09T10:50:12Z</time>
      </trkpt>
      <trkpt lat="42.95802" lon="1.78514">
        <ele>528</ele>
        <time>2014-11-09T10:50:17Z</time>
      </trkpt>
      <trkpt lat="42.95797" lon="1.78522">
        <ele>528</ele>
        <time>2014-11-09T10:50:22Z</time>
      </trkpt>
      <trkpt lat="42.95795" lon="1.7853">
        <ele>528</ele>
        <time>2014-11-09T10:50:27Z</time>
      </trkpt>
      <trkpt lat="42.95798" lon="1.78533">
        <ele>528</ele>
        <time>2014-11-09T10:50:34Z</time>
      </trkpt>
      <trkpt lat="42.95803" lon="1.78531">
        <ele>530</ele>
        <time>2014-11-09T10:50:39Z</time>
      </trkpt>
      <trkpt lat="42.95808" lon="1.7853">
        <ele>532</ele>
        <time>2014-11-09T10:50:44Z</time>
      </trkpt>
      <trkpt lat="42.95815" lon="1.7853">
        <ele>535</ele>
        <time>2014-11-09T10:50:49Z</time>
      </trkpt>
      <trkpt lat="42.95821" lon="1.7853">
        <ele>537</ele>
        <time>2014-11-09T10:50:55Z</time>
      </trkpt>
      <trkpt lat="42.95828" lon="1.78532">
        <ele>539</ele>
        <time>2014-11-09T10:51:01Z</time>
      </trkpt>
      <trkpt lat="42.95834" lon="1.78535">
        <ele>541</ele>
        <time>2014-11-09T10:51:07Z</time>
      </trkpt>
      <trkpt lat="42.9584" lon="1.78537">
        <ele>543</ele>
        <time>2014-11-09T10:51:12Z</time>
      </trkpt>
      <trkpt lat="42.95846" lon="1.78536">
        <ele>545</ele>
        <time>2014-11-09T10:51:17Z</time>
      </trkpt>
      <trkpt lat="42.9585" lon="1.78537">
        <ele>546</ele>
        <time>2014-11-09T10:51:22Z</time>
      </trkpt>
      <trkpt lat="42.9586" lon="1.78541">
        <ele>549</ele>
        <time>2014-11-09T10:51:30Z</time>
      </trkpt>
      <trkpt lat="42.95864" lon="1.78545">
        <ele>550</ele>
        <time>2014-11-09T10:51:35Z</time>
      </trkpt>
      <trkpt lat="42.95864" lon="1.78554">
        <ele>551</ele>
        <time>2014-11-09T10:51:41Z</time>
      </trkpt>
      <trkpt lat="42.95861" lon="1.78561">
        <ele>551</ele>
        <time>2014-11-09T10:51:46Z</time>
      </trkpt>
      <trkpt lat="42.9586" lon="1.78571">
        <ele>551</ele>
        <time>2014-11-09T10:51:51Z</time>
      </trkpt>
      <trkpt lat="42.95857" lon="1.78581">
        <ele>552</ele>
        <time>2014-11-09T10:51:56Z</time>
      </trkpt>
      <trkpt lat="42.95855" lon="1.7859">
        <ele>554</ele>
        <time>2014-11-09T10:52:02Z</time>
      </trkpt>
      <trkpt lat="42.95853" lon="1.78599">
        <ele>554</ele>
        <time>2014-11-09T10:52:07Z</time>
      </trkpt>
      <trkpt lat="42.95852" lon="1.78608">
        <ele>554</ele>
        <time>2014-11-09T10:52:12Z</time>
      </trkpt>
      <trkpt lat="42.95853" lon="1.78618">
        <ele>554</ele>
        <time>2014-11-09T10:52:17Z</time>
      </trkpt>
      <trkpt lat="42.95852" lon="1.78627">
        <ele>554</ele>
        <time>2014-11-09T10:52:22Z</time>
      </trkpt>
      <trkpt lat="42.95848" lon="1.78636">
        <ele>558</ele>
        <time>2014-11-09T10:52:28Z</time>
      </trkpt>
      <trkpt lat="42.95845" lon="1.78643">
        <ele>559</ele>
        <time>2014-11-09T10:52:33Z</time>
      </trkpt>
      <trkpt lat="42.95842" lon="1.78655">
        <ele>561</ele>
        <time>2014-11-09T10:52:38Z</time>
      </trkpt>
      <trkpt lat="42.95834" lon="1.78667">
        <ele>563</ele>
        <time>2014-11-09T10:52:43Z</time>
      </trkpt>
      <trkpt lat="42.95828" lon="1.78682">
        <ele>563</ele>
        <time>2014-11-09T10:52:48Z</time>
      </trkpt>
      <trkpt lat="42.95822" lon="1.78693">
        <ele>564</ele>
        <time>2014-11-09T10:52:53Z</time>
      </trkpt>
      <trkpt lat="42.95815" lon="1.78704">
        <ele>564</ele>
        <time>2014-11-09T10:52:58Z</time>
      </trkpt>
      <trkpt lat="42.95804" lon="1.78711">
        <ele>564</ele>
        <time>2014-11-09T10:53:03Z</time>
      </trkpt>
      <trkpt lat="42.95795" lon="1.7872">
        <ele>564</ele>
        <time>2014-11-09T10:53:08Z</time>
      </trkpt>
      <trkpt lat="42.9579" lon="1.78731">
        <ele>564</ele>
        <time>2014-11-09T10:53:13Z</time>
      </trkpt>
      <trkpt lat="42.95782" lon="1.78744">
        <ele>564</ele>
        <time>2014-11-09T10:53:18Z</time>
      </trkpt>
      <trkpt lat="42.95775" lon="1.78758">
        <ele>564</ele>
        <time>2014-11-09T10:53:23Z</time>
      </trkpt>
      <trkpt lat="42.95767" lon="1.78772">
        <ele>564</ele>
        <time>2014-11-09T10:53:28Z</time>
      </trkpt>
      <trkpt lat="42.95761" lon="1.78786">
        <ele>564</ele>
        <time>2014-11-09T10:53:33Z</time>
      </trkpt>
      <trkpt lat="42.95758" lon="1.78802">
        <ele>565</ele>
        <time>2014-11-09T10:53:38Z</time>
      </trkpt>
      <trkpt lat="42.95757" lon="1.78819">
        <ele>570</ele>
        <time>2014-11-09T10:53:43Z</time>
      </trkpt>
      <trkpt lat="42.95754" lon="1.78833">
        <ele>571</ele>
        <time>2014-11-09T10:53:48Z</time>
      </trkpt>
      <trkpt lat="42.95747" lon="1.78843">
        <ele>571</ele>
        <time>2014-11-09T10:53:53Z</time>
      </trkpt>
      <trkpt lat="42.95736" lon="1.78852">
        <ele>571</ele>
        <time>2014-11-09T10:53:58Z</time>
      </trkpt>
      <trkpt lat="42.95724" lon="1.78857">
        <ele>571</ele>
        <time>2014-11-09T10:54:03Z</time>
      </trkpt>
      <trkpt lat="42.95716" lon="1.78867">
        <ele>571</ele>
        <time>2014-11-09T10:54:08Z</time>
      </trkpt>
      <trkpt lat="42.95709" lon="1.78877">
        <ele>571</ele>
        <time>2014-11-09T10:54:13Z</time>
      </trkpt>
      <trkpt lat="42.95701" lon="1.78882">
        <ele>571</ele>
        <time>2014-11-09T10:54:18Z</time>
      </trkpt>
      <trkpt lat="42.95693" lon="1.78892">
        <ele>573</ele>
        <time>2014-11-09T10:54:23Z</time>
      </trkpt>
      <trkpt lat="42.95685" lon="1.78899">
        <ele>575</ele>
        <time>2014-11-09T10:54:28Z</time>
      </trkpt>
      <trkpt lat="42.95678" lon="1.78909">
        <ele>577</ele>
        <time>2014-11-09T10:54:34Z</time>
      </trkpt>
      <trkpt lat="42.95674" lon="1.78919">
        <ele>582</ele>
        <time>2014-11-09T10:54:39Z</time>
      </trkpt>
      <trkpt lat="42.95668" lon="1.78925">
        <ele>587</ele>
        <time>2014-11-09T10:54:44Z</time>
      </trkpt>
      <trkpt lat="42.95665" lon="1.78932">
        <ele>587</ele>
        <time>2014-11-09T10:54:49Z</time>
      </trkpt>
      <trkpt lat="42.9566" lon="1.78937">
        <ele>590</ele>
        <time>2014-11-09T10:54:54Z</time>
      </trkpt>
      <trkpt lat="42.95655" lon="1.78943">
        <ele>593</ele>
        <time>2014-11-09T10:54:59Z</time>
      </trkpt>
      <trkpt lat="42.95652" lon="1.7895">
        <ele>594</ele>
        <time>2014-11-09T10:55:04Z</time>
      </trkpt>
      <trkpt lat="42.9565" lon="1.78957">
        <ele>594</ele>
        <time>2014-11-09T10:55:09Z</time>
      </trkpt>
      <trkpt lat="42.95648" lon="1.78967">
        <ele>595</ele>
        <time>2014-11-09T10:55:14Z</time>
      </trkpt>
      <trkpt lat="42.95645" lon="1.78976">
        <ele>597</ele>
        <time>2014-11-09T10:55:19Z</time>
      </trkpt>
      <trkpt lat="42.95644" lon="1.78988">
        <ele>599</ele>
        <time>2014-11-09T10:55:25Z</time>
      </trkpt>
      <trkpt lat="42.95642" lon="1.78996">
        <ele>602</ele>
        <time>2014-11-09T10:55:30Z</time>
      </trkpt>
      <trkpt lat="42.95639" lon="1.79006">
        <ele>603</ele>
        <time>2014-11-09T10:55:35Z</time>
      </trkpt>
      <trkpt lat="42.95636" lon="1.79016">
        <ele>604</ele>
        <time>2014-11-09T10:55:40Z</time>
      </trkpt>
      <trkpt lat="42.95636" lon="1.79025">
        <ele>605</ele>
        <time>2014-11-09T10:55:46Z</time>
      </trkpt>
      <trkpt lat="42.95634" lon="1.79036">
        <ele>605</ele>
        <time>2014-11-09T10:55:51Z</time>
      </trkpt>
      <trkpt lat="42.95631" lon="1.79045">
        <ele>605</ele>
        <time>2014-11-09T10:55:56Z</time>
      </trkpt>
      <trkpt lat="42.95629" lon="1.79054">
        <ele>605</ele>
        <time>2014-11-09T10:56:01Z</time>
      </trkpt>
      <trkpt lat="42.95625" lon="1.79063">
        <ele>605</ele>
        <time>2014-11-09T10:56:06Z</time>
      </trkpt>
      <trkpt lat="42.9562" lon="1.79072">
        <ele>606</ele>
        <time>2014-11-09T10:56:11Z</time>
      </trkpt>
      <trkpt lat="42.95613" lon="1.79084">
        <ele>606</ele>
        <time>2014-11-09T10:56:16Z</time>
      </trkpt>
      <trkpt lat="42.95605" lon="1.791">
        <ele>606</ele>
        <time>2014-11-09T10:56:21Z</time>
      </trkpt>
      <trkpt lat="42.95602" lon="1.79116">
        <ele>606</ele>
        <time>2014-11-09T10:56:26Z</time>
      </trkpt>
      <trkpt lat="42.95599" lon="1.79132">
        <ele>607</ele>
        <time>2014-11-09T10:56:31Z</time>
      </trkpt>
      <trkpt lat="42.95594" lon="1.79145">
        <ele>608</ele>
        <time>2014-11-09T10:56:36Z</time>
      </trkpt>
      <trkpt lat="42.9559" lon="1.7916">
        <ele>610</ele>
        <time>2014-11-09T10:56:41Z</time>
      </trkpt>
      <trkpt lat="42.95587" lon="1.79176">
        <ele>610</ele>
        <time>2014-11-09T10:56:46Z</time>
      </trkpt>
      <trkpt lat="42.95584" lon="1.7919">
        <ele>615</ele>
        <time>2014-11-09T10:56:51Z</time>
      </trkpt>
      <trkpt lat="42.95581" lon="1.79202">
        <ele>618</ele>
        <time>2014-11-09T10:56:56Z</time>
      </trkpt>
      <trkpt lat="42.95578" lon="1.79213">
        <ele>619</ele>
        <time>2014-11-09T10:57:02Z</time>
      </trkpt>
      <trkpt lat="42.95576" lon="1.79222">
        <ele>622</ele>
        <time>2014-11-09T10:57:07Z</time>
      </trkpt>
      <trkpt lat="42.95573" lon="1.79229">
        <ele>625</ele>
        <time>2014-11-09T10:57:12Z</time>
      </trkpt>
      <trkpt lat="42.95572" lon="1.79236">
        <ele>628</ele>
        <time>2014-11-09T10:57:17Z</time>
      </trkpt>
      <trkpt lat="42.9557" lon="1.79244">
        <ele>630</ele>
        <time>2014-11-09T10:57:22Z</time>
      </trkpt>
      <trkpt lat="42.95564" lon="1.79253">
        <ele>633</ele>
        <time>2014-11-09T10:57:28Z</time>
      </trkpt>
      <trkpt lat="42.95561" lon="1.7926">
        <ele>635</ele>
        <time>2014-11-09T10:57:34Z</time>
      </trkpt>
      <trkpt lat="42.95556" lon="1.79269">
        <ele>637</ele>
        <time>2014-11-09T10:57:40Z</time>
      </trkpt>
      <trkpt lat="42.95552" lon="1.79279">
        <ele>638</ele>
        <time>2014-11-09T10:57:46Z</time>
      </trkpt>
      <trkpt lat="42.95551" lon="1.7929">
        <ele>638</ele>
        <time>2014-11-09T10:57:51Z</time>
      </trkpt>
      <trkpt lat="42.95546" lon="1.79298">
        <ele>638</ele>
        <time>2014-11-09T10:57:57Z</time>
      </trkpt>
      <trkpt lat="42.95536" lon="1.79304">
        <ele>639</ele>
        <time>2014-11-09T10:58:03Z</time>
      </trkpt>
      <trkpt lat="42.95524" lon="1.79312">
        <ele>639</ele>
        <time>2014-11-09T10:58:08Z</time>
      </trkpt>
      <trkpt lat="42.95514" lon="1.7932">
        <ele>639</ele>
        <time>2014-11-09T10:58:13Z</time>
      </trkpt>
      <trkpt lat="42.95503" lon="1.79326">
        <ele>639</ele>
        <time>2014-11-09T10:58:18Z</time>
      </trkpt>
      <trkpt lat="42.95496" lon="1.79339">
        <ele>639</ele>
        <time>2014-11-09T10:58:23Z</time>
      </trkpt>
      <trkpt lat="42.95494" lon="1.79353">
        <ele>642</ele>
        <time>2014-11-09T10:58:28Z</time>
      </trkpt>
      <trkpt lat="42.95492" lon="1.79366">
        <ele>644</ele>
        <time>2014-11-09T10:58:33Z</time>
      </trkpt>
      <trkpt lat="42.9549" lon="1.79379">
        <ele>649</ele>
        <time>2014-11-09T10:58:38Z</time>
      </trkpt>
      <trkpt lat="42.95484" lon="1.79394">
        <ele>653</ele>
        <time>2014-11-09T10:58:43Z</time>
      </trkpt>
      <trkpt lat="42.95478" lon="1.79403">
        <ele>655</ele>
        <time>2014-11-09T10:58:48Z</time>
      </trkpt>
      <trkpt lat="42.95478" lon="1.79414">
        <ele>655</ele>
        <time>2014-11-09T10:58:53Z</time>
      </trkpt>
      <trkpt lat="42.95479" lon="1.79422">
        <ele>655</ele>
        <time>2014-11-09T10:58:58Z</time>
      </trkpt>
      <trkpt lat="42.95478" lon="1.79432">
        <ele>653</ele>
        <time>2014-11-09T10:59:04Z</time>
      </trkpt>
      <trkpt lat="42.95479" lon="1.79441">
        <ele>653</ele>
        <time>2014-11-09T10:59:09Z</time>
      </trkpt>
      <trkpt lat="42.95479" lon="1.79448">
        <ele>654</ele>
        <time>2014-11-09T10:59:15Z</time>
      </trkpt>
      <trkpt lat="42.9548" lon="1.79457">
        <ele>657</ele>
        <time>2014-11-09T10:59:20Z</time>
      </trkpt>
      <trkpt lat="42.95478" lon="1.79462">
        <ele>661</ele>
        <time>2014-11-09T10:59:25Z</time>
      </trkpt>
      <trkpt lat="42.95477" lon="1.79468">
        <ele>665</ele>
        <time>2014-11-09T10:59:30Z</time>
      </trkpt>
      <trkpt lat="42.95475" lon="1.79476">
        <ele>667</ele>
        <time>2014-11-09T10:59:35Z</time>
      </trkpt>
      <trkpt lat="42.95474" lon="1.79482">
        <ele>668</ele>
        <time>2014-11-09T10:59:40Z</time>
      </trkpt>
      <trkpt lat="42.95471" lon="1.79489">
        <ele>669</ele>
        <time>2014-11-09T10:59:46Z</time>
      </trkpt>
      <trkpt lat="42.95467" lon="1.79496">
        <ele>670</ele>
        <time>2014-11-09T10:59:51Z</time>
      </trkpt>
      <trkpt lat="42.95462" lon="1.79508">
        <ele>670</ele>
        <time>2014-11-09T10:59:57Z</time>
      </trkpt>
      <trkpt lat="42.95453" lon="1.79525">
        <ele>670</ele>
        <time>2014-11-09T11:00:03Z</time>
      </trkpt>
      <trkpt lat="42.9545" lon="1.79539">
        <ele>672</ele>
        <time>2014-11-09T11:00:08Z</time>
      </trkpt>
      <trkpt lat="42.95449" lon="1.79552">
        <ele>675</ele>
        <time>2014-11-09T11:00:13Z</time>
      </trkpt>
      <trkpt lat="42.95446" lon="1.79561">
        <ele>678</ele>
        <time>2014-11-09T11:00:19Z</time>
      </trkpt>
      <trkpt lat="42.95443" lon="1.79568">
        <ele>679</ele>
        <time>2014-11-09T11:00:24Z</time>
      </trkpt>
      <trkpt lat="42.95437" lon="1.79572">
        <ele>682</ele>
        <time>2014-11-09T11:00:30Z</time>
      </trkpt>
      <trkpt lat="42.95434" lon="1.7958">
        <ele>684</ele>
        <time>2014-11-09T11:00:36Z</time>
      </trkpt>
      <trkpt lat="42.95431" lon="1.79587">
        <ele>687</ele>
        <time>2014-11-09T11:00:41Z</time>
      </trkpt>
      <trkpt lat="42.9543" lon="1.79593">
        <ele>690</ele>
        <time>2014-11-09T11:00:46Z</time>
      </trkpt>
      <trkpt lat="42.95428" lon="1.796">
        <ele>692</ele>
        <time>2014-11-09T11:00:51Z</time>
      </trkpt>
      <trkpt lat="42.95425" lon="1.7961">
        <ele>692</ele>
        <time>2014-11-09T11:00:58Z</time>
      </trkpt>
      <trkpt lat="42.95425" lon="1.79622">
        <ele>692</ele>
        <time>2014-11-09T11:01:05Z</time>
      </trkpt>
      <trkpt lat="42.95426" lon="1.7963">
        <ele>692</ele>
        <time>2014-11-09T11:01:10Z</time>
      </trkpt>
      <trkpt lat="42.95428" lon="1.79636">
        <ele>692</ele>
        <time>2014-11-09T11:01:15Z</time>
      </trkpt>
      <trkpt lat="42.95429" lon="1.79643">
        <ele>692</ele>
        <time>2014-11-09T11:01:20Z</time>
      </trkpt>
      <trkpt lat="42.9543" lon="1.7965">
        <ele>692</ele>
        <time>2014-11-09T11:01:25Z</time>
      </trkpt>
      <trkpt lat="42.95434" lon="1.79655">
        <ele>692</ele>
        <time>2014-11-09T11:01:33Z</time>
      </trkpt>
      <trkpt lat="42.95439" lon="1.7965">
        <ele>695</ele>
        <time>2014-11-09T11:01:39Z</time>
      </trkpt>
      <trkpt lat="42.95441" lon="1.79633">
        <ele>698</ele>
        <time>2014-11-09T11:01:44Z</time>
      </trkpt>
      <trkpt lat="42.95455" lon="1.7963">
        <ele>699</ele>
        <time>2014-11-09T11:01:49Z</time>
      </trkpt>
      <trkpt lat="42.95473" lon="1.79627">
        <ele>699</ele>
        <time>2014-11-09T11:01:55Z</time>
      </trkpt>
      <trkpt lat="42.95488" lon="1.79631">
        <ele>699</ele>
        <time>2014-11-09T11:02:00Z</time>
      </trkpt>
      <trkpt lat="42.95498" lon="1.79624">
        <ele>699</ele>
        <time>2014-11-09T11:02:05Z</time>
      </trkpt>
      <trkpt lat="42.95506" lon="1.79615">
        <ele>702</ele>
        <time>2014-11-09T11:02:10Z</time>
      </trkpt>
      <trkpt lat="42.95507" lon="1.79608">
        <ele>705</ele>
        <time>2014-11-09T11:02:16Z</time>
      </trkpt>
      <trkpt lat="42.95505" lon="1.79601">
        <ele>706</ele>
        <time>2014-11-09T11:02:23Z</time>
      </trkpt>
      <trkpt lat="42.95504" lon="1.79593">
        <ele>706</ele>
        <time>2014-11-09T11:02:28Z</time>
      </trkpt>
      <trkpt lat="42.95506" lon="1.79584">
        <ele>706</ele>
        <time>2014-11-09T11:02:35Z</time>
      </trkpt>
      <trkpt lat="42.9551" lon="1.7958">
        <ele>706</ele>
        <time>2014-11-09T11:02:40Z</time>
      </trkpt>
      <trkpt lat="42.95516" lon="1.79572">
        <ele>706</ele>
        <time>2014-11-09T11:02:46Z</time>
      </trkpt>
      <trkpt lat="42.95526" lon="1.79563">
        <ele>706</ele>
        <time>2014-11-09T11:02:51Z</time>
      </trkpt>
      <trkpt lat="42.95533" lon="1.79556">
        <ele>706</ele>
        <time>2014-11-09T11:02:56Z</time>
      </trkpt>
      <trkpt lat="42.95541" lon="1.79546">
        <ele>711</ele>
        <time>2014-11-09T11:03:01Z</time>
      </trkpt>
      <trkpt lat="42.95549" lon="1.79535">
        <ele>715</ele>
        <time>2014-11-09T11:03:06Z</time>
      </trkpt>
      <trkpt lat="42.95557" lon="1.79524">
        <ele>716</ele>
        <time>2014-11-09T11:03:11Z</time>
      </trkpt>
      <trkpt lat="42.95564" lon="1.79516">
        <ele>717</ele>
        <time>2014-11-09T11:03:16Z</time>
      </trkpt>
      <trkpt lat="42.95573" lon="1.79505">
        <ele>717</ele>
        <time>2014-11-09T11:03:21Z</time>
      </trkpt>
      <trkpt lat="42.95576" lon="1.79485">
        <ele>717</ele>
        <time>2014-11-09T11:03:27Z</time>
      </trkpt>
      <trkpt lat="42.95581" lon="1.79469">
        <ele>717</ele>
        <time>2014-11-09T11:03:32Z</time>
      </trkpt>
      <trkpt lat="42.95586" lon="1.79448">
        <ele>717</ele>
        <time>2014-11-09T11:03:38Z</time>
      </trkpt>
      <trkpt lat="42.95589" lon="1.7943">
        <ele>716</ele>
        <time>2014-11-09T11:03:43Z</time>
      </trkpt>
      <trkpt lat="42.95593" lon="1.79413">
        <ele>716</ele>
        <time>2014-11-09T11:03:48Z</time>
      </trkpt>
      <trkpt lat="42.95596" lon="1.79397">
        <ele>716</ele>
        <time>2014-11-09T11:03:53Z</time>
      </trkpt>
      <trkpt lat="42.95601" lon="1.79379">
        <ele>715</ele>
        <time>2014-11-09T11:03:58Z</time>
      </trkpt>
      <trkpt lat="42.95611" lon="1.79364">
        <ele>713</ele>
        <time>2014-11-09T11:04:03Z</time>
      </trkpt>
      <trkpt lat="42.95618" lon="1.79346">
        <ele>711</ele>
        <time>2014-11-09T11:04:08Z</time>
      </trkpt>
      <trkpt lat="42.95627" lon="1.79331">
        <ele>710</ele>
        <time>2014-11-09T11:04:13Z</time>
      </trkpt>
      <trkpt lat="42.95634" lon="1.79314">
        <ele>709</ele>
        <time>2014-11-09T11:04:18Z</time>
      </trkpt>
      <trkpt lat="42.95641" lon="1.79295">
        <ele>708</ele>
        <time>2014-11-09T11:04:23Z</time>
      </trkpt>
      <trkpt lat="42.95646" lon="1.79277">
        <ele>708</ele>
        <time>2014-11-09T11:04:28Z</time>
      </trkpt>
      <trkpt lat="42.95655" lon="1.79266">
        <ele>706</ele>
        <time>2014-11-09T11:04:33Z</time>
      </trkpt>
      <trkpt lat="42.95665" lon="1.79255">
        <ele>702</ele>
        <time>2014-11-09T11:04:38Z</time>
      </trkpt>
      <trkpt lat="42.95678" lon="1.79243">
        <ele>699</ele>
        <time>2014-11-09T11:04:43Z</time>
      </trkpt>
      <trkpt lat="42.95684" lon="1.79227">
        <ele>697</ele>
        <time>2014-11-09T11:04:48Z</time>
      </trkpt>
      <trkpt lat="42.95688" lon="1.79211">
        <ele>695</ele>
        <time>2014-11-09T11:04:53Z</time>
      </trkpt>
      <trkpt lat="42.95699" lon="1.7919">
        <ele>693</ele>
        <time>2014-11-09T11:04:58Z</time>
      </trkpt>
      <trkpt lat="42.95708" lon="1.79169">
        <ele>690</ele>
        <time>2014-11-09T11:05:03Z</time>
      </trkpt>
      <trkpt lat="42.95715" lon="1.79146">
        <ele>690</ele>
        <time>2014-11-09T11:05:08Z</time>
      </trkpt>
      <trkpt lat="42.9572" lon="1.79124">
        <ele>688</ele>
        <time>2014-11-09T11:05:13Z</time>
      </trkpt>
      <trkpt lat="42.95729" lon="1.79105">
        <ele>688</ele>
        <time>2014-11-09T11:05:18Z</time>
      </trkpt>
      <trkpt lat="42.95736" lon="1.79083">
        <ele>687</ele>
        <time>2014-11-09T11:05:23Z</time>
      </trkpt>
      <trkpt lat="42.95745" lon="1.79065">
        <ele>685</ele>
        <time>2014-11-09T11:05:28Z</time>
      </trkpt>
      <trkpt lat="42.95754" lon="1.79047">
        <ele>682</ele>
        <time>2014-11-09T11:05:33Z</time>
      </trkpt>
      <trkpt lat="42.95761" lon="1.79029">
        <ele>678</ele>
        <time>2014-11-09T11:05:38Z</time>
      </trkpt>
      <trkpt lat="42.95773" lon="1.79012">
        <ele>675</ele>
        <time>2014-11-09T11:05:43Z</time>
      </trkpt>
      <trkpt lat="42.95788" lon="1.79">
        <ele>671</ele>
        <time>2014-11-09T11:05:48Z</time>
      </trkpt>
      <trkpt lat="42.95801" lon="1.7899">
        <ele>668</ele>
        <time>2014-11-09T11:05:53Z</time>
      </trkpt>
      <trkpt lat="42.95813" lon="1.78979">
        <ele>666</ele>
        <time>2014-11-09T11:05:58Z</time>
      </trkpt>
      <trkpt lat="42.95822" lon="1.78963">
        <ele>664</ele>
        <time>2014-11-09T11:06:04Z</time>
      </trkpt>
      <trkpt lat="42.95832" lon="1.78951">
        <ele>663</ele>
        <time>2014-11-09T11:06:09Z</time>
      </trkpt>
      <trkpt lat="42.95837" lon="1.78939">
        <ele>663</ele>
        <time>2014-11-09T11:06:14Z</time>
      </trkpt>
      <trkpt lat="42.95844" lon="1.7893">
        <ele>663</ele>
        <time>2014-11-09T11:06:19Z</time>
      </trkpt>
      <trkpt lat="42.95848" lon="1.78919">
        <ele>663</ele>
        <time>2014-11-09T11:06:25Z</time>
      </trkpt>
      <trkpt lat="42.95852" lon="1.78913">
        <ele>663</ele>
        <time>2014-11-09T11:06:30Z</time>
      </trkpt>
      <trkpt lat="42.9586" lon="1.78907">
        <ele>664</ele>
        <time>2014-11-09T11:06:35Z</time>
      </trkpt>
      <trkpt lat="42.95868" lon="1.78899">
        <ele>667</ele>
        <time>2014-11-09T11:06:40Z</time>
      </trkpt>
      <trkpt lat="42.95876" lon="1.78888">
        <ele>668</ele>
        <time>2014-11-09T11:06:46Z</time>
      </trkpt>
      <trkpt lat="42.95885" lon="1.78872">
        <ele>668</ele>
        <time>2014-11-09T11:06:51Z</time>
      </trkpt>
      <trkpt lat="42.95895" lon="1.78857">
        <ele>669</ele>
        <time>2014-11-09T11:06:56Z</time>
      </trkpt>
      <trkpt lat="42.95906" lon="1.78844">
        <ele>669</ele>
        <time>2014-11-09T11:07:01Z</time>
      </trkpt>
      <trkpt lat="42.95916" lon="1.78826">
        <ele>669</ele>
        <time>2014-11-09T11:07:06Z</time>
      </trkpt>
      <trkpt lat="42.95925" lon="1.78809">
        <ele>669</ele>
        <time>2014-11-09T11:07:11Z</time>
      </trkpt>
      <trkpt lat="42.95933" lon="1.78788">
        <ele>669</ele>
        <time>2014-11-09T11:07:16Z</time>
      </trkpt>
      <trkpt lat="42.95943" lon="1.78769">
        <ele>668</ele>
        <time>2014-11-09T11:07:21Z</time>
      </trkpt>
      <trkpt lat="42.9595" lon="1.78752">
        <ele>665</ele>
        <time>2014-11-09T11:07:26Z</time>
      </trkpt>
      <trkpt lat="42.95952" lon="1.78731">
        <ele>665</ele>
        <time>2014-11-09T11:07:31Z</time>
      </trkpt>
      <trkpt lat="42.95964" lon="1.78718">
        <ele>664</ele>
        <time>2014-11-09T11:07:36Z</time>
      </trkpt>
      <trkpt lat="42.95975" lon="1.78701">
        <ele>662</ele>
        <time>2014-11-09T11:07:41Z</time>
      </trkpt>
      <trkpt lat="42.95982" lon="1.78695">
        <ele>659</ele>
        <time>2014-11-09T11:07:46Z</time>
      </trkpt>
      <trkpt lat="42.9599" lon="1.78689">
        <ele>658</ele>
        <time>2014-11-09T11:07:51Z</time>
      </trkpt>
      <trkpt lat="42.96" lon="1.78682">
        <ele>656</ele>
        <time>2014-11-09T11:07:56Z</time>
      </trkpt>
      <trkpt lat="42.95998" lon="1.78697">
        <ele>653</ele>
        <time>2014-11-09T11:08:01Z</time>
      </trkpt>
      <trkpt lat="42.95995" lon="1.78718">
        <ele>650</ele>
        <time>2014-11-09T11:08:06Z</time>
      </trkpt>
      <trkpt lat="42.95993" lon="1.78742">
        <ele>650</ele>
        <time>2014-11-09T11:08:11Z</time>
      </trkpt>
      <trkpt lat="42.95996" lon="1.78761">
        <ele>650</ele>
        <time>2014-11-09T11:08:16Z</time>
      </trkpt>
      <trkpt lat="42.96001" lon="1.78778">
        <ele>650</ele>
        <time>2014-11-09T11:08:21Z</time>
      </trkpt>
      <trkpt lat="42.96008" lon="1.78794">
        <ele>649</ele>
        <time>2014-11-09T11:08:26Z</time>
      </trkpt>
      <trkpt lat="42.96014" lon="1.78815">
        <ele>648</ele>
        <time>2014-11-09T11:08:31Z</time>
      </trkpt>
      <trkpt lat="42.96028" lon="1.78829">
        <ele>648</ele>
        <time>2014-11-09T11:08:36Z</time>
      </trkpt>
      <trkpt lat="42.96044" lon="1.78843">
        <ele>648</ele>
        <time>2014-11-09T11:08:41Z</time>
      </trkpt>
      <trkpt lat="42.9605" lon="1.78862">
        <ele>648</ele>
        <time>2014-11-09T11:08:46Z</time>
      </trkpt>
      <trkpt lat="42.96051" lon="1.78883">
        <ele>648</ele>
        <time>2014-11-09T11:08:51Z</time>
      </trkpt>
      <trkpt lat="42.96053" lon="1.78901">
        <ele>648</ele>
        <time>2014-11-09T11:08:56Z</time>
      </trkpt>
      <trkpt lat="42.96053" lon="1.7892">
        <ele>648</ele>
        <time>2014-11-09T11:09:01Z</time>
      </trkpt>
      <trkpt lat="42.96054" lon="1.78943">
        <ele>648</ele>
        <time>2014-11-09T11:09:06Z</time>
      </trkpt>
      <trkpt lat="42.96056" lon="1.78965">
        <ele>648</ele>
        <time>2014-11-09T11:09:11Z</time>
      </trkpt>
      <trkpt lat="42.96057" lon="1.78987">
        <ele>648</ele>
        <time>2014-11-09T11:09:16Z</time>
      </trkpt>
      <trkpt lat="42.96059" lon="1.7901">
        <ele>648</ele>
        <time>2014-11-09T11:09:21Z</time>
      </trkpt>
      <trkpt lat="42.96059" lon="1.7903">
        <ele>648</ele>
        <time>2014-11-09T11:09:26Z</time>
      </trkpt>
      <trkpt lat="42.96057" lon="1.79055">
        <ele>648</ele>
        <time>2014-11-09T11:09:31Z</time>
      </trkpt>
      <trkpt lat="42.96064" lon="1.79079">
        <ele>648</ele>
        <time>2014-11-09T11:09:36Z</time>
      </trkpt>
      <trkpt lat="42.96064" lon="1.79105">
        <ele>648</ele>
        <time>2014-11-09T11:09:41Z</time>
      </trkpt>
      <trkpt lat="42.96062" lon="1.79128">
        <ele>647</ele>
        <time>2014-11-09T11:09:46Z</time>
      </trkpt>
      <trkpt lat="42.96062" lon="1.79149">
        <ele>647</ele>
        <time>2014-11-09T11:09:51Z</time>
      </trkpt>
      <trkpt lat="42.96062" lon="1.79166">
        <ele>647</ele>
        <time>2014-11-09T11:09:56Z</time>
      </trkpt>
      <trkpt lat="42.96056" lon="1.79178">
        <ele>647</ele>
        <time>2014-11-09T11:10:01Z</time>
      </trkpt>
      <trkpt lat="42.96052" lon="1.79189">
        <ele>647</ele>
        <time>2014-11-09T11:10:06Z</time>
      </trkpt>
      <trkpt lat="42.96048" lon="1.79202">
        <ele>647</ele>
        <time>2014-11-09T11:10:11Z</time>
      </trkpt>
      <trkpt lat="42.96045" lon="1.79212">
        <ele>647</ele>
        <time>2014-11-09T11:10:16Z</time>
      </trkpt>
      <trkpt lat="42.96043" lon="1.79225">
        <ele>647</ele>
        <time>2014-11-09T11:10:21Z</time>
      </trkpt>
      <trkpt lat="42.96038" lon="1.79237">
        <ele>647</ele>
        <time>2014-11-09T11:10:26Z</time>
      </trkpt>
      <trkpt lat="42.96032" lon="1.7925">
        <ele>647</ele>
        <time>2014-11-09T11:10:31Z</time>
      </trkpt>
      <trkpt lat="42.96029" lon="1.79263">
        <ele>647</ele>
        <time>2014-11-09T11:10:36Z</time>
      </trkpt>
      <trkpt lat="42.96026" lon="1.79277">
        <ele>647</ele>
        <time>2014-11-09T11:10:41Z</time>
      </trkpt>
      <trkpt lat="42.96024" lon="1.79292">
        <ele>649</ele>
        <time>2014-11-09T11:10:46Z</time>
      </trkpt>
      <trkpt lat="42.96021" lon="1.79306">
        <ele>650</ele>
        <time>2014-11-09T11:10:51Z</time>
      </trkpt>
      <trkpt lat="42.96015" lon="1.79322">
        <ele>652</ele>
        <time>2014-11-09T11:10:56Z</time>
      </trkpt>
      <trkpt lat="42.96009" lon="1.79333">
        <ele>653</ele>
        <time>2014-11-09T11:11:01Z</time>
      </trkpt>
      <trkpt lat="42.96006" lon="1.79348">
        <ele>654</ele>
        <time>2014-11-09T11:11:06Z</time>
      </trkpt>
      <trkpt lat="42.96002" lon="1.79362">
        <ele>656</ele>
        <time>2014-11-09T11:11:11Z</time>
      </trkpt>
      <trkpt lat="42.96001" lon="1.79374">
        <ele>657</ele>
        <time>2014-11-09T11:11:16Z</time>
      </trkpt>
      <trkpt lat="42.96" lon="1.79391">
        <ele>658</ele>
        <time>2014-11-09T11:11:21Z</time>
      </trkpt>
      <trkpt lat="42.95999" lon="1.79412">
        <ele>662</ele>
        <time>2014-11-09T11:11:26Z</time>
      </trkpt>
      <trkpt lat="42.95999" lon="1.79434">
        <ele>664</ele>
        <time>2014-11-09T11:11:31Z</time>
      </trkpt>
      <trkpt lat="42.96002" lon="1.79452">
        <ele>665</ele>
        <time>2014-11-09T11:11:36Z</time>
      </trkpt>
      <trkpt lat="42.96" lon="1.79471">
        <ele>667</ele>
        <time>2014-11-09T11:11:41Z</time>
      </trkpt>
      <trkpt lat="42.95999" lon="1.79481">
        <ele>668</ele>
        <time>2014-11-09T11:11:46Z</time>
      </trkpt>
      <trkpt lat="42.95995" lon="1.79495">
        <ele>668</ele>
        <time>2014-11-09T11:11:51Z</time>
      </trkpt>
      <trkpt lat="42.9599" lon="1.79509">
        <ele>668</ele>
        <time>2014-11-09T11:11:56Z</time>
      </trkpt>
      <trkpt lat="42.95988" lon="1.79526">
        <ele>668</ele>
        <time>2014-11-09T11:12:01Z</time>
      </trkpt>
      <trkpt lat="42.95987" lon="1.79542">
        <ele>668</ele>
        <time>2014-11-09T11:12:06Z</time>
      </trkpt>
      <trkpt lat="42.95985" lon="1.79556">
        <ele>668</ele>
        <time>2014-11-09T11:12:11Z</time>
      </trkpt>
      <trkpt lat="42.9598" lon="1.79576">
        <ele>668</ele>
        <time>2014-11-09T11:12:16Z</time>
      </trkpt>
      <trkpt lat="42.95979" lon="1.79593">
        <ele>668</ele>
        <time>2014-11-09T11:12:21Z</time>
      </trkpt>
      <trkpt lat="42.95979" lon="1.79604">
        <ele>668</ele>
        <time>2014-11-09T11:12:26Z</time>
      </trkpt>
      <trkpt lat="42.95974" lon="1.79617">
        <ele>668</ele>
        <time>2014-11-09T11:12:31Z</time>
      </trkpt>
      <trkpt lat="42.95967" lon="1.79632">
        <ele>668</ele>
        <time>2014-11-09T11:12:36Z</time>
      </trkpt>
      <trkpt lat="42.95963" lon="1.79643">
        <ele>668</ele>
        <time>2014-11-09T11:12:41Z</time>
      </trkpt>
      <trkpt lat="42.95959" lon="1.79659">
        <ele>670</ele>
        <time>2014-11-09T11:12:46Z</time>
      </trkpt>
      <trkpt lat="42.95956" lon="1.79678">
        <ele>675</ele>
        <time>2014-11-09T11:12:51Z</time>
      </trkpt>
      <trkpt lat="42.9595" lon="1.79693">
        <ele>677</ele>
        <time>2014-11-09T11:12:56Z</time>
      </trkpt>
      <trkpt lat="42.95943" lon="1.79702">
        <ele>678</ele>
        <time>2014-11-09T11:13:01Z</time>
      </trkpt>
      <trkpt lat="42.95937" lon="1.79712">
        <ele>678</ele>
        <time>2014-11-09T11:13:06Z</time>
      </trkpt>
      <trkpt lat="42.9593" lon="1.79727">
        <ele>678</ele>
        <time>2014-11-09T11:13:11Z</time>
      </trkpt>
      <trkpt lat="42.95928" lon="1.79744">
        <ele>679</ele>
        <time>2014-11-09T11:13:16Z</time>
      </trkpt>
      <trkpt lat="42.95927" lon="1.79758">
        <ele>682</ele>
        <time>2014-11-09T11:13:21Z</time>
      </trkpt>
      <trkpt lat="42.95926" lon="1.79772">
        <ele>682</ele>
        <time>2014-11-09T11:13:26Z</time>
      </trkpt>
      <trkpt lat="42.95927" lon="1.79784">
        <ele>682</ele>
        <time>2014-11-09T11:13:31Z</time>
      </trkpt>
      <trkpt lat="42.95926" lon="1.79803">
        <ele>683</ele>
        <time>2014-11-09T11:13:36Z</time>
      </trkpt>
      <trkpt lat="42.95925" lon="1.79816">
        <ele>684</ele>
        <time>2014-11-09T11:13:41Z</time>
      </trkpt>
      <trkpt lat="42.95921" lon="1.79829">
        <ele>685</ele>
        <time>2014-11-09T11:13:46Z</time>
      </trkpt>
      <trkpt lat="42.95917" lon="1.79843">
        <ele>686</ele>
        <time>2014-11-09T11:13:51Z</time>
      </trkpt>
      <trkpt lat="42.95915" lon="1.79851">
        <ele>688</ele>
        <time>2014-11-09T11:13:56Z</time>
      </trkpt>
      <trkpt lat="42.9591" lon="1.79857">
        <ele>688</ele>
        <time>2014-11-09T11:14:01Z</time>
      </trkpt>
      <trkpt lat="42.95898" lon="1.79858">
        <ele>689</ele>
        <time>2014-11-09T11:14:06Z</time>
      </trkpt>
      <trkpt lat="42.95885" lon="1.79855">
        <ele>692</ele>
        <time>2014-11-09T11:14:11Z</time>
      </trkpt>
      <trkpt lat="42.95873" lon="1.79856">
        <ele>695</ele>
        <time>2014-11-09T11:14:16Z</time>
      </trkpt>
      <trkpt lat="42.9586" lon="1.79851">
        <ele>697</ele>
        <time>2014-11-09T11:14:21Z</time>
      </trkpt>
      <trkpt lat="42.95848" lon="1.79844">
        <ele>700</ele>
        <time>2014-11-09T11:14:26Z</time>
      </trkpt>
      <trkpt lat="42.95836" lon="1.79838">
        <ele>702</ele>
        <time>2014-11-09T11:14:31Z</time>
      </trkpt>
      <trkpt lat="42.95824" lon="1.79831">
        <ele>704</ele>
        <time>2014-11-09T11:14:36Z</time>
      </trkpt>
      <trkpt lat="42.95811" lon="1.79822">
        <ele>707</ele>
        <time>2014-11-09T11:14:41Z</time>
      </trkpt>
      <trkpt lat="42.95799" lon="1.79817">
        <ele>707</ele>
        <time>2014-11-09T11:14:46Z</time>
      </trkpt>
      <trkpt lat="42.95785" lon="1.79815">
        <ele>707</ele>
        <time>2014-11-09T11:14:51Z</time>
      </trkpt>
      <trkpt lat="42.95772" lon="1.79806">
        <ele>707</ele>
        <time>2014-11-09T11:14:56Z</time>
      </trkpt>
      <trkpt lat="42.9576" lon="1.79792">
        <ele>707</ele>
        <time>2014-11-09T11:15:01Z</time>
      </trkpt>
      <trkpt lat="42.95745" lon="1.7978">
        <ele>707</ele>
        <time>2014-11-09T11:15:06Z</time>
      </trkpt>
      <trkpt lat="42.95733" lon="1.7977">
        <ele>707</ele>
        <time>2014-11-09T11:15:11Z</time>
      </trkpt>
      <trkpt lat="42.95716" lon="1.79762">
        <ele>704</ele>
        <time>2014-11-09T11:15:16Z</time>
      </trkpt>
      <trkpt lat="42.957" lon="1.79761">
        <ele>704</ele>
        <time>2014-11-09T11:15:21Z</time>
      </trkpt>
      <trkpt lat="42.95686" lon="1.79755">
        <ele>703</ele>
        <time>2014-11-09T11:15:26Z</time>
      </trkpt>
      <trkpt lat="42.9567" lon="1.79754">
        <ele>703</ele>
        <time>2014-11-09T11:15:31Z</time>
      </trkpt>
      <trkpt lat="42.95657" lon="1.79758">
        <ele>701</ele>
        <time>2014-11-09T11:15:36Z</time>
      </trkpt>
      <trkpt lat="42.95652" lon="1.79773">
        <ele>699</ele>
        <time>2014-11-09T11:15:41Z</time>
      </trkpt>
      <trkpt lat="42.95648" lon="1.79798">
        <ele>698</ele>
        <time>2014-11-09T11:15:46Z</time>
      </trkpt>
      <trkpt lat="42.95638" lon="1.79814">
        <ele>696</ele>
        <time>2014-11-09T11:15:51Z</time>
      </trkpt>
      <trkpt lat="42.95626" lon="1.79827">
        <ele>694</ele>
        <time>2014-11-09T11:15:56Z</time>
      </trkpt>
      <trkpt lat="42.95613" lon="1.79836">
        <ele>694</ele>
        <time>2014-11-09T11:16:01Z</time>
      </trkpt>
      <trkpt lat="42.95605" lon="1.7985">
        <ele>694</ele>
        <time>2014-11-09T11:16:06Z</time>
      </trkpt>
      <trkpt lat="42.956" lon="1.79869">
        <ele>694</ele>
        <time>2014-11-09T11:16:11Z</time>
      </trkpt>
      <trkpt lat="42.95597" lon="1.79885">
        <ele>694</ele>
        <time>2014-11-09T11:16:16Z</time>
      </trkpt>
      <trkpt lat="42.95594" lon="1.79906">
        <ele>695</ele>
        <time>2014-11-09T11:16:22Z</time>
      </trkpt>
      <trkpt lat="42.95593" lon="1.79925">
        <ele>696</ele>
        <time>2014-11-09T11:16:27Z</time>
      </trkpt>
      <trkpt lat="42.95593" lon="1.79941">
        <ele>696</ele>
        <time>2014-11-09T11:16:32Z</time>
      </trkpt>
      <trkpt lat="42.95596" lon="1.79948">
        <ele>698</ele>
        <time>2014-11-09T11:16:37Z</time>
      </trkpt>
      <trkpt lat="42.95596" lon="1.79959">
        <ele>698</ele>
        <time>2014-11-09T11:16:43Z</time>
      </trkpt>
      <trkpt lat="42.95593" lon="1.79969">
        <ele>700</ele>
        <time>2014-11-09T11:16:48Z</time>
      </trkpt>
      <trkpt lat="42.95588" lon="1.79978">
        <ele>700</ele>
        <time>2014-11-09T11:16:53Z</time>
      </trkpt>
      <trkpt lat="42.95581" lon="1.79986">
        <ele>700</ele>
        <time>2014-11-09T11:16:58Z</time>
      </trkpt>
      <trkpt lat="42.95575" lon="1.79996">
        <ele>700</ele>
        <time>2014-11-09T11:17:03Z</time>
      </trkpt>
      <trkpt lat="42.95574" lon="1.8001">
        <ele>700</ele>
        <time>2014-11-09T11:17:08Z</time>
      </trkpt>
      <trkpt lat="42.95569" lon="1.80027">
        <ele>700</ele>
        <time>2014-11-09T11:17:13Z</time>
      </trkpt>
      <trkpt lat="42.95565" lon="1.80043">
        <ele>700</ele>
        <time>2014-11-09T11:17:18Z</time>
      </trkpt>
      <trkpt lat="42.95562" lon="1.80062">
        <ele>702</ele>
        <time>2014-11-09T11:17:23Z</time>
      </trkpt>
      <trkpt lat="42.95561" lon="1.80075">
        <ele>704</ele>
        <time>2014-11-09T11:17:28Z</time>
      </trkpt>
      <trkpt lat="42.9556" lon="1.80093">
        <ele>705</ele>
        <time>2014-11-09T11:17:34Z</time>
      </trkpt>
      <trkpt lat="42.95558" lon="1.80104">
        <ele>707</ele>
        <time>2014-11-09T11:17:39Z</time>
      </trkpt>
      <trkpt lat="42.95558" lon="1.80122">
        <ele>708</ele>
        <time>2014-11-09T11:17:44Z</time>
      </trkpt>
      <trkpt lat="42.95557" lon="1.80139">
        <ele>709</ele>
        <time>2014-11-09T11:17:49Z</time>
      </trkpt>
      <trkpt lat="42.95556" lon="1.80155">
        <ele>710</ele>
        <time>2014-11-09T11:17:54Z</time>
      </trkpt>
      <trkpt lat="42.95555" lon="1.80168">
        <ele>713</ele>
        <time>2014-11-09T11:17:59Z</time>
      </trkpt>
      <trkpt lat="42.9556" lon="1.80178">
        <ele>716</ele>
        <time>2014-11-09T11:18:04Z</time>
      </trkpt>
      <trkpt lat="42.95567" lon="1.80186">
        <ele>716</ele>
        <time>2014-11-09T11:18:09Z</time>
      </trkpt>
      <trkpt lat="42.95578" lon="1.80193">
        <ele>717</ele>
        <time>2014-11-09T11:18:14Z</time>
      </trkpt>
      <trkpt lat="42.95582" lon="1.80205">
        <ele>717</ele>
        <time>2014-11-09T11:18:19Z</time>
      </trkpt>
      <trkpt lat="42.95589" lon="1.80216">
        <ele>717</ele>
        <time>2014-11-09T11:18:24Z</time>
      </trkpt>
      <trkpt lat="42.95595" lon="1.80227">
        <ele>718</ele>
        <time>2014-11-09T11:18:29Z</time>
      </trkpt>
      <trkpt lat="42.95603" lon="1.8024">
        <ele>718</ele>
        <time>2014-11-09T11:18:34Z</time>
      </trkpt>
      <trkpt lat="42.95614" lon="1.80253">
        <ele>719</ele>
        <time>2014-11-09T11:18:39Z</time>
      </trkpt>
      <trkpt lat="42.95628" lon="1.80263">
        <ele>722</ele>
        <time>2014-11-09T11:18:46Z</time>
      </trkpt>
      <trkpt lat="42.95635" lon="1.80272">
        <ele>723</ele>
        <time>2014-11-09T11:18:51Z</time>
      </trkpt>
      <trkpt lat="42.95641" lon="1.80283">
        <ele>724</ele>
        <time>2014-11-09T11:18:56Z</time>
      </trkpt>
      <trkpt lat="42.95644" lon="1.80294">
        <ele>724</ele>
        <time>2014-11-09T11:19:01Z</time>
      </trkpt>
      <trkpt lat="42.95647" lon="1.80307">
        <ele>724</ele>
        <time>2014-11-09T11:19:06Z</time>
      </trkpt>
      <trkpt lat="42.95649" lon="1.80321">
        <ele>725</ele>
        <time>2014-11-09T11:19:11Z</time>
      </trkpt>
      <trkpt lat="42.95649" lon="1.80335">
        <ele>726</ele>
        <time>2014-11-09T11:19:16Z</time>
      </trkpt>
      <trkpt lat="42.95652" lon="1.80349">
        <ele>727</ele>
        <time>2014-11-09T11:19:21Z</time>
      </trkpt>
      <trkpt lat="42.95649" lon="1.80352">
        <ele>730</ele>
        <time>2014-11-09T11:19:26Z</time>
      </trkpt>
      <trkpt lat="42.95639" lon="1.80351">
        <ele>732</ele>
        <time>2014-11-09T11:19:31Z</time>
      </trkpt>
      <trkpt lat="42.95625" lon="1.80354">
        <ele>733</ele>
        <time>2014-11-09T11:19:36Z</time>
      </trkpt>
      <trkpt lat="42.95613" lon="1.80353">
        <ele>735</ele>
        <time>2014-11-09T11:19:41Z</time>
      </trkpt>
      <trkpt lat="42.95599" lon="1.80353">
        <ele>735</ele>
        <time>2014-11-09T11:19:46Z</time>
      </trkpt>
      <trkpt lat="42.95587" lon="1.80351">
        <ele>735</ele>
        <time>2014-11-09T11:19:51Z</time>
      </trkpt>
      <trkpt lat="42.95572" lon="1.80345">
        <ele>735</ele>
        <time>2014-11-09T11:19:56Z</time>
      </trkpt>
      <trkpt lat="42.95558" lon="1.80332">
        <ele>738</ele>
        <time>2014-11-09T11:20:01Z</time>
      </trkpt>
      <trkpt lat="42.95547" lon="1.80314">
        <ele>740</ele>
        <time>2014-11-09T11:20:06Z</time>
      </trkpt>
      <trkpt lat="42.95533" lon="1.80298">
        <ele>742</ele>
        <time>2014-11-09T11:20:12Z</time>
      </trkpt>
      <trkpt lat="42.95519" lon="1.80292">
        <ele>744</ele>
        <time>2014-11-09T11:20:17Z</time>
      </trkpt>
      <trkpt lat="42.95507" lon="1.80295">
        <ele>744</ele>
        <time>2014-11-09T11:20:22Z</time>
      </trkpt>
      <trkpt lat="42.95494" lon="1.80298">
        <ele>744</ele>
        <time>2014-11-09T11:20:27Z</time>
      </trkpt>
      <trkpt lat="42.95483" lon="1.80301">
        <ele>744</ele>
        <time>2014-11-09T11:20:32Z</time>
      </trkpt>
      <trkpt lat="42.95477" lon="1.80312">
        <ele>743</ele>
        <time>2014-11-09T11:20:37Z</time>
      </trkpt>
      <trkpt lat="42.95472" lon="1.80327">
        <ele>742</ele>
        <time>2014-11-09T11:20:42Z</time>
      </trkpt>
      <trkpt lat="42.9547" lon="1.80342">
        <ele>742</ele>
        <time>2014-11-09T11:20:47Z</time>
      </trkpt>
      <trkpt lat="42.95469" lon="1.80356">
        <ele>742</ele>
        <time>2014-11-09T11:20:52Z</time>
      </trkpt>
      <trkpt lat="42.95464" lon="1.80369">
        <ele>742</ele>
        <time>2014-11-09T11:20:57Z</time>
      </trkpt>
      <trkpt lat="42.95459" lon="1.80379">
        <ele>742</ele>
        <time>2014-11-09T11:21:03Z</time>
      </trkpt>
      <trkpt lat="42.95454" lon="1.80386">
        <ele>742</ele>
        <time>2014-11-09T11:21:08Z</time>
      </trkpt>
      <trkpt lat="42.95449" lon="1.80397">
        <ele>742</ele>
        <time>2014-11-09T11:21:13Z</time>
      </trkpt>
      <trkpt lat="42.95443" lon="1.80407">
        <ele>742</ele>
        <time>2014-11-09T11:21:18Z</time>
      </trkpt>
      <trkpt lat="42.95437" lon="1.80419">
        <ele>743</ele>
        <time>2014-11-09T11:21:23Z</time>
      </trkpt>
      <trkpt lat="42.95433" lon="1.80433">
        <ele>743</ele>
        <time>2014-11-09T11:21:28Z</time>
      </trkpt>
      <trkpt lat="42.95427" lon="1.80452">
        <ele>745</ele>
        <time>2014-11-09T11:21:33Z</time>
      </trkpt>
      <trkpt lat="42.95423" lon="1.80462">
        <ele>749</ele>
        <time>2014-11-09T11:21:38Z</time>
      </trkpt>
      <trkpt lat="42.95419" lon="1.80475">
        <ele>749</ele>
        <time>2014-11-09T11:21:43Z</time>
      </trkpt>
      <trkpt lat="42.95413" lon="1.80486">
        <ele>749</ele>
        <time>2014-11-09T11:21:48Z</time>
      </trkpt>
      <trkpt lat="42.95408" lon="1.80505">
        <ele>749</ele>
        <time>2014-11-09T11:21:54Z</time>
      </trkpt>
      <trkpt lat="42.95398" lon="1.80517">
        <ele>749</ele>
        <time>2014-11-09T11:21:59Z</time>
      </trkpt>
      <trkpt lat="42.95389" lon="1.80529">
        <ele>749</ele>
        <time>2014-11-09T11:22:04Z</time>
      </trkpt>
      <trkpt lat="42.95381" lon="1.80539">
        <ele>749</ele>
        <time>2014-11-09T11:22:09Z</time>
      </trkpt>
      <trkpt lat="42.95372" lon="1.80551">
        <ele>749</ele>
        <time>2014-11-09T11:22:14Z</time>
      </trkpt>
      <trkpt lat="42.95369" lon="1.80564">
        <ele>749</ele>
        <time>2014-11-09T11:22:19Z</time>
      </trkpt>
      <trkpt lat="42.95362" lon="1.80575">
        <ele>750</ele>
        <time>2014-11-09T11:22:24Z</time>
      </trkpt>
      <trkpt lat="42.95356" lon="1.80588">
        <ele>751</ele>
        <time>2014-11-09T11:22:29Z</time>
      </trkpt>
      <trkpt lat="42.9535" lon="1.80604">
        <ele>753</ele>
        <time>2014-11-09T11:22:34Z</time>
      </trkpt>
      <trkpt lat="42.95344" lon="1.80617">
        <ele>754</ele>
        <time>2014-11-09T11:22:39Z</time>
      </trkpt>
      <trkpt lat="42.95339" lon="1.8064">
        <ele>757</ele>
        <time>2014-11-09T11:22:44Z</time>
      </trkpt>
      <trkpt lat="42.95338" lon="1.80658">
        <ele>761</ele>
        <time>2014-11-09T11:22:49Z</time>
      </trkpt>
      <trkpt lat="42.95339" lon="1.80676">
        <ele>761</ele>
        <time>2014-11-09T11:22:54Z</time>
      </trkpt>
      <trkpt lat="42.95336" lon="1.80691">
        <ele>761</ele>
        <time>2014-11-09T11:22:59Z</time>
      </trkpt>
      <trkpt lat="42.95332" lon="1.80715">
        <ele>761</ele>
        <time>2014-11-09T11:23:05Z</time>
      </trkpt>
      <trkpt lat="42.95327" lon="1.80733">
        <ele>762</ele>
        <time>2014-11-09T11:23:10Z</time>
      </trkpt>
      <trkpt lat="42.95321" lon="1.80752">
        <ele>762</ele>
        <time>2014-11-09T11:23:15Z</time>
      </trkpt>
      <trkpt lat="42.95315" lon="1.80774">
        <ele>762</ele>
        <time>2014-11-09T11:23:20Z</time>
      </trkpt>
      <trkpt lat="42.95315" lon="1.80798">
        <ele>763</ele>
        <time>2014-11-09T11:23:26Z</time>
      </trkpt>
      <trkpt lat="42.95314" lon="1.8082">
        <ele>763</ele>
        <time>2014-11-09T11:23:31Z</time>
      </trkpt>
      <trkpt lat="42.95313" lon="1.80842">
        <ele>763</ele>
        <time>2014-11-09T11:23:36Z</time>
      </trkpt>
      <trkpt lat="42.95315" lon="1.8086">
        <ele>763</ele>
        <time>2014-11-09T11:23:41Z</time>
      </trkpt>
      <trkpt lat="42.95311" lon="1.80875">
        <ele>763</ele>
        <time>2014-11-09T11:23:46Z</time>
      </trkpt>
      <trkpt lat="42.95309" lon="1.80889">
        <ele>761</ele>
        <time>2014-11-09T11:23:51Z</time>
      </trkpt>
      <trkpt lat="42.953" lon="1.80917">
        <ele>761</ele>
        <time>2014-11-09T11:23:57Z</time>
      </trkpt>
      <trkpt lat="42.95299" lon="1.80935">
        <ele>761</ele>
        <time>2014-11-09T11:24:02Z</time>
      </trkpt>
      <trkpt lat="42.95301" lon="1.80955">
        <ele>761</ele>
        <time>2014-11-09T11:24:07Z</time>
      </trkpt>
      <trkpt lat="42.95301" lon="1.80974">
        <ele>761</ele>
        <time>2014-11-09T11:24:12Z</time>
      </trkpt>
      <trkpt lat="42.95304" lon="1.80991">
        <ele>761</ele>
        <time>2014-11-09T11:24:17Z</time>
      </trkpt>
      <trkpt lat="42.95308" lon="1.81008">
        <ele>761</ele>
        <time>2014-11-09T11:24:22Z</time>
      </trkpt>
      <trkpt lat="42.95312" lon="1.81025">
        <ele>759</ele>
        <time>2014-11-09T11:24:27Z</time>
      </trkpt>
      <trkpt lat="42.95314" lon="1.81045">
        <ele>759</ele>
        <time>2014-11-09T11:24:32Z</time>
      </trkpt>
      <trkpt lat="42.95316" lon="1.81063">
        <ele>759</ele>
        <time>2014-11-09T11:24:37Z</time>
      </trkpt>
      <trkpt lat="42.95317" lon="1.81084">
        <ele>759</ele>
        <time>2014-11-09T11:24:42Z</time>
      </trkpt>
      <trkpt lat="42.9532" lon="1.81102">
        <ele>759</ele>
        <time>2014-11-09T11:24:47Z</time>
      </trkpt>
      <trkpt lat="42.95322" lon="1.81119">
        <ele>759</ele>
        <time>2014-11-09T11:24:52Z</time>
      </trkpt>
      <trkpt lat="42.95327" lon="1.81142">
        <ele>757</ele>
        <time>2014-11-09T11:24:58Z</time>
      </trkpt>
      <trkpt lat="42.9533" lon="1.81162">
        <ele>757</ele>
        <time>2014-11-09T11:25:03Z</time>
      </trkpt>
      <trkpt lat="42.95334" lon="1.81189">
        <ele>756</ele>
        <time>2014-11-09T11:25:09Z</time>
      </trkpt>
      <trkpt lat="42.95336" lon="1.81211">
        <ele>756</ele>
        <time>2014-11-09T11:25:14Z</time>
      </trkpt>
      <trkpt lat="42.95334" lon="1.8123">
        <ele>756</ele>
        <time>2014-11-09T11:25:19Z</time>
      </trkpt>
      <trkpt lat="42.95337" lon="1.81249">
        <ele>756</ele>
        <time>2014-11-09T11:25:24Z</time>
      </trkpt>
      <trkpt lat="42.95342" lon="1.8127">
        <ele>756</ele>
        <time>2014-11-09T11:25:29Z</time>
      </trkpt>
      <trkpt lat="42.95344" lon="1.81277">
        <ele>762</ele>
        <time>2014-11-09T11:25:36Z</time>
      </trkpt>
      <trkpt lat="42.95339" lon="1.81277">
        <ele>766</ele>
        <time>2014-11-09T11:25:41Z</time>
      </trkpt>
      <trkpt lat="42.95333" lon="1.81278">
        <ele>767</ele>
        <time>2014-11-09T11:25:46Z</time>
      </trkpt>
      <trkpt lat="42.95329" lon="1.81278">
        <ele>769</ele>
        <time>2014-11-09T11:25:51Z</time>
      </trkpt>
      <trkpt lat="42.95324" lon="1.81275">
        <ele>773</ele>
        <time>2014-11-09T11:25:57Z</time>
      </trkpt>
      <trkpt lat="42.95319" lon="1.81275">
        <ele>775</ele>
        <time>2014-11-09T11:26:03Z</time>
      </trkpt>
      <trkpt lat="42.9531" lon="1.81273">
        <ele>776</ele>
        <time>2014-11-09T11:26:08Z</time>
      </trkpt>
      <trkpt lat="42.95303" lon="1.81272">
        <ele>776</ele>
        <time>2014-11-09T11:26:14Z</time>
      </trkpt>
      <trkpt lat="42.95295" lon="1.81271">
        <ele>776</ele>
        <time>2014-11-09T11:26:20Z</time>
      </trkpt>
      <trkpt lat="42.95288" lon="1.8127">
        <ele>776</ele>
        <time>2014-11-09T11:26:25Z</time>
      </trkpt>
      <trkpt lat="42.95284" lon="1.81269">
        <ele>779</ele>
        <time>2014-11-09T11:26:30Z</time>
      </trkpt>
      <trkpt lat="42.95278" lon="1.81269">
        <ele>781</ele>
        <time>2014-11-09T11:26:35Z</time>
      </trkpt>
      <trkpt lat="42.95273" lon="1.81271">
        <ele>784</ele>
        <time>2014-11-09T11:26:41Z</time>
      </trkpt>
      <trkpt lat="42.95268" lon="1.81273">
        <ele>786</ele>
        <time>2014-11-09T11:26:47Z</time>
      </trkpt>
      <trkpt lat="42.95262" lon="1.81276">
        <ele>786</ele>
        <time>2014-11-09T11:26:53Z</time>
      </trkpt>
      <trkpt lat="42.95257" lon="1.81277">
        <ele>787</ele>
        <time>2014-11-09T11:26:58Z</time>
      </trkpt>
      <trkpt lat="42.95253" lon="1.81281">
        <ele>789</ele>
        <time>2014-11-09T11:27:03Z</time>
      </trkpt>
      <trkpt lat="42.95245" lon="1.81288">
        <ele>790</ele>
        <time>2014-11-09T11:27:09Z</time>
      </trkpt>
      <trkpt lat="42.95231" lon="1.81292">
        <ele>790</ele>
        <time>2014-11-09T11:27:14Z</time>
      </trkpt>
      <trkpt lat="42.95218" lon="1.81297">
        <ele>790</ele>
        <time>2014-11-09T11:27:19Z</time>
      </trkpt>
      <trkpt lat="42.95209" lon="1.81299">
        <ele>790</ele>
        <time>2014-11-09T11:27:24Z</time>
      </trkpt>
      <trkpt lat="42.95204" lon="1.81309">
        <ele>790</ele>
        <time>2014-11-09T11:27:29Z</time>
      </trkpt>
      <trkpt lat="42.95197" lon="1.81327">
        <ele>793</ele>
        <time>2014-11-09T11:27:34Z</time>
      </trkpt>
      <trkpt lat="42.95193" lon="1.81343">
        <ele>796</ele>
        <time>2014-11-09T11:27:39Z</time>
      </trkpt>
      <trkpt lat="42.95184" lon="1.81357">
        <ele>798</ele>
        <time>2014-11-09T11:27:44Z</time>
      </trkpt>
      <trkpt lat="42.95176" lon="1.81363">
        <ele>799</ele>
        <time>2014-11-09T11:27:49Z</time>
      </trkpt>
      <trkpt lat="42.95164" lon="1.81367">
        <ele>800</ele>
        <time>2014-11-09T11:27:54Z</time>
      </trkpt>
      <trkpt lat="42.95152" lon="1.81368">
        <ele>800</ele>
        <time>2014-11-09T11:27:59Z</time>
      </trkpt>
      <trkpt lat="42.95142" lon="1.81375">
        <ele>800</ele>
        <time>2014-11-09T11:28:04Z</time>
      </trkpt>
      <trkpt lat="42.95136" lon="1.81379">
        <ele>800</ele>
        <time>2014-11-09T11:28:09Z</time>
      </trkpt>
      <trkpt lat="42.95124" lon="1.81389">
        <ele>801</ele>
        <time>2014-11-09T11:28:14Z</time>
      </trkpt>
      <trkpt lat="42.95115" lon="1.81395">
        <ele>802</ele>
        <time>2014-11-09T11:28:19Z</time>
      </trkpt>
      <trkpt lat="42.95111" lon="1.81395">
        <ele>805</ele>
        <time>2014-11-09T11:28:24Z</time>
      </trkpt>
      <trkpt lat="42.95107" lon="1.81396">
        <ele>809</ele>
        <time>2014-11-09T11:28:29Z</time>
      </trkpt>
      <trkpt lat="42.95102" lon="1.81396">
        <ele>811</ele>
        <time>2014-11-09T11:28:34Z</time>
      </trkpt>
      <trkpt lat="42.95094" lon="1.81394">
        <ele>811</ele>
        <time>2014-11-09T11:28:39Z</time>
      </trkpt>
      <trkpt lat="42.95087" lon="1.81393">
        <ele>811</ele>
        <time>2014-11-09T11:28:44Z</time>
      </trkpt>
      <trkpt lat="42.9508" lon="1.8139">
        <ele>812</ele>
        <time>2014-11-09T11:28:49Z</time>
      </trkpt>
      <trkpt lat="42.95071" lon="1.81388">
        <ele>813</ele>
        <time>2014-11-09T11:28:54Z</time>
      </trkpt>
      <trkpt lat="42.95058" lon="1.81387">
        <ele>813</ele>
        <time>2014-11-09T11:28:59Z</time>
      </trkpt>
      <trkpt lat="42.95046" lon="1.81389">
        <ele>813</ele>
        <time>2014-11-09T11:29:04Z</time>
      </trkpt>
      <trkpt lat="42.95039" lon="1.81399">
        <ele>813</ele>
        <time>2014-11-09T11:29:09Z</time>
      </trkpt>
      <trkpt lat="42.95028" lon="1.81408">
        <ele>813</ele>
        <time>2014-11-09T11:29:14Z</time>
      </trkpt>
      <trkpt lat="42.95021" lon="1.81429">
        <ele>813</ele>
        <time>2014-11-09T11:29:19Z</time>
      </trkpt>
      <trkpt lat="42.9502" lon="1.81449">
        <ele>813</ele>
        <time>2014-11-09T11:29:24Z</time>
      </trkpt>
      <trkpt lat="42.95015" lon="1.81466">
        <ele>813</ele>
        <time>2014-11-09T11:29:29Z</time>
      </trkpt>
      <trkpt lat="42.95006" lon="1.81485">
        <ele>813</ele>
        <time>2014-11-09T11:29:34Z</time>
      </trkpt>
      <trkpt lat="42.95001" lon="1.815">
        <ele>813</ele>
        <time>2014-11-09T11:29:41Z</time>
      </trkpt>
      <trkpt lat="42.95005" lon="1.81501">
        <ele>813</ele>
        <time>2014-11-09T11:29:48Z</time>
      </trkpt>
      <trkpt lat="42.95" lon="1.81507">
        <ele>814</ele>
        <time>2014-11-09T11:29:53Z</time>
      </trkpt>
      <trkpt lat="42.94987" lon="1.81515">
        <ele>814</ele>
        <time>2014-11-09T11:29:58Z</time>
      </trkpt>
      <trkpt lat="42.9497" lon="1.81528">
        <ele>814</ele>
        <time>2014-11-09T11:30:04Z</time>
      </trkpt>
      <trkpt lat="42.94957" lon="1.81539">
        <ele>813</ele>
        <time>2014-11-09T11:30:09Z</time>
      </trkpt>
      <trkpt lat="42.94947" lon="1.81552">
        <ele>812</ele>
        <time>2014-11-09T11:30:14Z</time>
      </trkpt>
      <trkpt lat="42.94947" lon="1.81566">
        <ele>812</ele>
        <time>2014-11-09T11:30:19Z</time>
      </trkpt>
      <trkpt lat="42.94948" lon="1.81585">
        <ele>812</ele>
        <time>2014-11-09T11:30:24Z</time>
      </trkpt>
      <trkpt lat="42.94947" lon="1.81602">
        <ele>812</ele>
        <time>2014-11-09T11:30:29Z</time>
      </trkpt>
      <trkpt lat="42.94946" lon="1.81607">
        <ele>812</ele>
        <time>2014-11-09T11:30:43Z</time>
      </trkpt>
      <trkpt lat="42.94936" lon="1.81611">
        <ele>812</ele>
        <time>2014-11-09T11:30:48Z</time>
      </trkpt>
      <trkpt lat="42.94929" lon="1.81619">
        <ele>812</ele>
        <time>2014-11-09T11:30:53Z</time>
      </trkpt>
      <trkpt lat="42.94925" lon="1.81637">
        <ele>812</ele>
        <time>2014-11-09T11:30:58Z</time>
      </trkpt>
      <trkpt lat="42.9492" lon="1.81651">
        <ele>812</ele>
        <time>2014-11-09T11:31:03Z</time>
      </trkpt>
      <trkpt lat="42.94912" lon="1.81658">
        <ele>812</ele>
        <time>2014-11-09T11:31:08Z</time>
      </trkpt>
      <trkpt lat="42.94904" lon="1.81673">
        <ele>812</ele>
        <time>2014-11-09T11:31:14Z</time>
      </trkpt>
      <trkpt lat="42.94894" lon="1.81683">
        <ele>812</ele>
        <time>2014-11-09T11:31:19Z</time>
      </trkpt>
      <trkpt lat="42.94891" lon="1.817">
        <ele>812</ele>
        <time>2014-11-09T11:31:24Z</time>
      </trkpt>
      <trkpt lat="42.94884" lon="1.81712">
        <ele>812</ele>
        <time>2014-11-09T11:31:29Z</time>
      </trkpt>
      <trkpt lat="42.94878" lon="1.8172">
        <ele>813</ele>
        <time>2014-11-09T11:31:34Z</time>
      </trkpt>
      <trkpt lat="42.9487" lon="1.81725">
        <ele>813</ele>
        <time>2014-11-09T11:31:39Z</time>
      </trkpt>
      <trkpt lat="42.94859" lon="1.81732">
        <ele>813</ele>
        <time>2014-11-09T11:31:44Z</time>
      </trkpt>
      <trkpt lat="42.94846" lon="1.81739">
        <ele>813</ele>
        <time>2014-11-09T11:31:49Z</time>
      </trkpt>
      <trkpt lat="42.94835" lon="1.81748">
        <ele>812</ele>
        <time>2014-11-09T11:31:54Z</time>
      </trkpt>
      <trkpt lat="42.94831" lon="1.81767">
        <ele>812</ele>
        <time>2014-11-09T11:31:59Z</time>
      </trkpt>
      <trkpt lat="42.94827" lon="1.81781">
        <ele>812</ele>
        <time>2014-11-09T11:32:04Z</time>
      </trkpt>
      <trkpt lat="42.94827" lon="1.81794">
        <ele>812</ele>
        <time>2014-11-09T11:32:09Z</time>
      </trkpt>
      <trkpt lat="42.94828" lon="1.81809">
        <ele>812</ele>
        <time>2014-11-09T11:32:14Z</time>
      </trkpt>
      <trkpt lat="42.94832" lon="1.81818">
        <ele>810</ele>
        <time>2014-11-09T11:32:19Z</time>
      </trkpt>
      <trkpt lat="42.94848" lon="1.81807">
        <ele>809</ele>
        <time>2014-11-09T11:32:24Z</time>
      </trkpt>
      <trkpt lat="42.94865" lon="1.81798">
        <ele>809</ele>
        <time>2014-11-09T11:32:29Z</time>
      </trkpt>
      <trkpt lat="42.94877" lon="1.81794">
        <ele>809</ele>
        <time>2014-11-09T11:32:34Z</time>
      </trkpt>
      <trkpt lat="42.94886" lon="1.81787">
        <ele>806</ele>
        <time>2014-11-09T11:32:39Z</time>
      </trkpt>
      <trkpt lat="42.94896" lon="1.81773">
        <ele>804</ele>
        <time>2014-11-09T11:32:44Z</time>
      </trkpt>
      <trkpt lat="42.9491" lon="1.8176">
        <ele>799</ele>
        <time>2014-11-09T11:32:50Z</time>
      </trkpt>
      <trkpt lat="42.94927" lon="1.81764">
        <ele>794</ele>
        <time>2014-11-09T11:32:55Z</time>
      </trkpt>
      <trkpt lat="42.94944" lon="1.81779">
        <ele>788</ele>
        <time>2014-11-09T11:33:00Z</time>
      </trkpt>
      <trkpt lat="42.94962" lon="1.81796">
        <ele>779</ele>
        <time>2014-11-09T11:33:05Z</time>
      </trkpt>
      <trkpt lat="42.94979" lon="1.8181">
        <ele>772</ele>
        <time>2014-11-09T11:33:10Z</time>
      </trkpt>
      <trkpt lat="42.94999" lon="1.81824">
        <ele>767</ele>
        <time>2014-11-09T11:33:15Z</time>
      </trkpt>
      <trkpt lat="42.95016" lon="1.81838">
        <ele>765</ele>
        <time>2014-11-09T11:33:20Z</time>
      </trkpt>
      <trkpt lat="42.95032" lon="1.81851">
        <ele>765</ele>
        <time>2014-11-09T11:33:25Z</time>
      </trkpt>
      <trkpt lat="42.95042" lon="1.81867">
        <ele>765</ele>
        <time>2014-11-09T11:33:30Z</time>
      </trkpt>
      <trkpt lat="42.95052" lon="1.81882">
        <ele>765</ele>
        <time>2014-11-09T11:33:35Z</time>
      </trkpt>
      <trkpt lat="42.9507" lon="1.8189">
        <ele>764</ele>
        <time>2014-11-09T11:33:40Z</time>
      </trkpt>
      <trkpt lat="42.95093" lon="1.81895">
        <ele>764</ele>
        <time>2014-11-09T11:33:46Z</time>
      </trkpt>
      <trkpt lat="42.95118" lon="1.81902">
        <ele>762</ele>
        <time>2014-11-09T11:33:51Z</time>
      </trkpt>
      <trkpt lat="42.95137" lon="1.8191">
        <ele>759</ele>
        <time>2014-11-09T11:33:56Z</time>
      </trkpt>
      <trkpt lat="42.95158" lon="1.8192">
        <ele>758</ele>
        <time>2014-11-09T11:34:01Z</time>
      </trkpt>
      <trkpt lat="42.95179" lon="1.81929">
        <ele>758</ele>
        <time>2014-11-09T11:34:06Z</time>
      </trkpt>
      <trkpt lat="42.95193" lon="1.81942">
        <ele>757</ele>
        <time>2014-11-09T11:34:11Z</time>
      </trkpt>
      <trkpt lat="42.9521" lon="1.81959">
        <ele>752</ele>
        <time>2014-11-09T11:34:17Z</time>
      </trkpt>
      <trkpt lat="42.95225" lon="1.81974">
        <ele>747</ele>
        <time>2014-11-09T11:34:22Z</time>
      </trkpt>
      <trkpt lat="42.9524" lon="1.81988">
        <ele>744</ele>
        <time>2014-11-09T11:34:27Z</time>
      </trkpt>
      <trkpt lat="42.95259" lon="1.81992">
        <ele>742</ele>
        <time>2014-11-09T11:34:32Z</time>
      </trkpt>
      <trkpt lat="42.95275" lon="1.82004">
        <ele>739</ele>
        <time>2014-11-09T11:34:37Z</time>
      </trkpt>
      <trkpt lat="42.95292" lon="1.82021">
        <ele>737</ele>
        <time>2014-11-09T11:34:42Z</time>
      </trkpt>
      <trkpt lat="42.95307" lon="1.82039">
        <ele>732</ele>
        <time>2014-11-09T11:34:47Z</time>
      </trkpt>
      <trkpt lat="42.95319" lon="1.82059">
        <ele>728</ele>
        <time>2014-11-09T11:34:52Z</time>
      </trkpt>
      <trkpt lat="42.95334" lon="1.82074">
        <ele>726</ele>
        <time>2014-11-09T11:34:57Z</time>
      </trkpt>
      <trkpt lat="42.95355" lon="1.8208">
        <ele>725</ele>
        <time>2014-11-09T11:35:02Z</time>
      </trkpt>
      <trkpt lat="42.9537" lon="1.8208">
        <ele>725</ele>
        <time>2014-11-09T11:35:07Z</time>
      </trkpt>
      <trkpt lat="42.95383" lon="1.82091">
        <ele>725</ele>
        <time>2014-11-09T11:35:12Z</time>
      </trkpt>
      <trkpt lat="42.95396" lon="1.82112">
        <ele>724</ele>
        <time>2014-11-09T11:35:17Z</time>
      </trkpt>
      <trkpt lat="42.95404" lon="1.82132">
        <ele>722</ele>
        <time>2014-11-09T11:35:22Z</time>
      </trkpt>
      <trkpt lat="42.95414" lon="1.82152">
        <ele>721</ele>
        <time>2014-11-09T11:35:27Z</time>
      </trkpt>
      <trkpt lat="42.95425" lon="1.82169">
        <ele>719</ele>
        <time>2014-11-09T11:35:32Z</time>
      </trkpt>
      <trkpt lat="42.95433" lon="1.8219">
        <ele>716</ele>
        <time>2014-11-09T11:35:37Z</time>
      </trkpt>
      <trkpt lat="42.95441" lon="1.82207">
        <ele>713</ele>
        <time>2014-11-09T11:35:42Z</time>
      </trkpt>
      <trkpt lat="42.95451" lon="1.82223">
        <ele>710</ele>
        <time>2014-11-09T11:35:47Z</time>
      </trkpt>
      <trkpt lat="42.95465" lon="1.82236">
        <ele>708</ele>
        <time>2014-11-09T11:35:52Z</time>
      </trkpt>
      <trkpt lat="42.95482" lon="1.82247">
        <ele>707</ele>
        <time>2014-11-09T11:35:57Z</time>
      </trkpt>
      <trkpt lat="42.95488" lon="1.8227">
        <ele>705</ele>
        <time>2014-11-09T11:36:02Z</time>
      </trkpt>
      <trkpt lat="42.95486" lon="1.82292">
        <ele>705</ele>
        <time>2014-11-09T11:36:07Z</time>
      </trkpt>
      <trkpt lat="42.95488" lon="1.82315">
        <ele>705</ele>
        <time>2014-11-09T11:36:12Z</time>
      </trkpt>
      <trkpt lat="42.95496" lon="1.82336">
        <ele>705</ele>
        <time>2014-11-09T11:36:17Z</time>
      </trkpt>
      <trkpt lat="42.95506" lon="1.82355">
        <ele>705</ele>
        <time>2014-11-09T11:36:22Z</time>
      </trkpt>
      <trkpt lat="42.95517" lon="1.82375">
        <ele>702</ele>
        <time>2014-11-09T11:36:27Z</time>
      </trkpt>
      <trkpt lat="42.95523" lon="1.82398">
        <ele>701</ele>
        <time>2014-11-09T11:36:32Z</time>
      </trkpt>
      <trkpt lat="42.95528" lon="1.82421">
        <ele>700</ele>
        <time>2014-11-09T11:36:37Z</time>
      </trkpt>
      <trkpt lat="42.95533" lon="1.82442">
        <ele>700</ele>
        <time>2014-11-09T11:36:42Z</time>
      </trkpt>
      <trkpt lat="42.95539" lon="1.82461">
        <ele>698</ele>
        <time>2014-11-09T11:36:47Z</time>
      </trkpt>
      <trkpt lat="42.95547" lon="1.82481">
        <ele>694</ele>
        <time>2014-11-09T11:36:52Z</time>
      </trkpt>
      <trkpt lat="42.95553" lon="1.8251">
        <ele>693</ele>
        <time>2014-11-09T11:36:58Z</time>
      </trkpt>
      <trkpt lat="42.95557" lon="1.82533">
        <ele>692</ele>
        <time>2014-11-09T11:37:03Z</time>
      </trkpt>
      <trkpt lat="42.95563" lon="1.82558">
        <ele>692</ele>
        <time>2014-11-09T11:37:08Z</time>
      </trkpt>
      <trkpt lat="42.9557" lon="1.82582">
        <ele>690</ele>
        <time>2014-11-09T11:37:13Z</time>
      </trkpt>
      <trkpt lat="42.95569" lon="1.82604">
        <ele>689</ele>
        <time>2014-11-09T11:37:18Z</time>
      </trkpt>
      <trkpt lat="42.95568" lon="1.82622">
        <ele>689</ele>
        <time>2014-11-09T11:37:23Z</time>
      </trkpt>
      <trkpt lat="42.95568" lon="1.82641">
        <ele>689</ele>
        <time>2014-11-09T11:37:28Z</time>
      </trkpt>
      <trkpt lat="42.95566" lon="1.8266">
        <ele>689</ele>
        <time>2014-11-09T11:37:33Z</time>
      </trkpt>
      <trkpt lat="42.95568" lon="1.82681">
        <ele>689</ele>
        <time>2014-11-09T11:37:38Z</time>
      </trkpt>
      <trkpt lat="42.95572" lon="1.82705">
        <ele>689</ele>
        <time>2014-11-09T11:37:43Z</time>
      </trkpt>
      <trkpt lat="42.95572" lon="1.82727">
        <ele>689</ele>
        <time>2014-11-09T11:37:48Z</time>
      </trkpt>
      <trkpt lat="42.95584" lon="1.82741">
        <ele>689</ele>
        <time>2014-11-09T11:37:53Z</time>
      </trkpt>
      <trkpt lat="42.95602" lon="1.82758">
        <ele>693</ele>
        <time>2014-11-09T11:37:58Z</time>
      </trkpt>
      <trkpt lat="42.95604" lon="1.82782">
        <ele>695</ele>
        <time>2014-11-09T11:38:03Z</time>
      </trkpt>
      <trkpt lat="42.95606" lon="1.82808">
        <ele>695</ele>
        <time>2014-11-09T11:38:08Z</time>
      </trkpt>
      <trkpt lat="42.95606" lon="1.82832">
        <ele>695</ele>
        <time>2014-11-09T11:38:13Z</time>
      </trkpt>
      <trkpt lat="42.95609" lon="1.82854">
        <ele>695</ele>
        <time>2014-11-09T11:38:18Z</time>
      </trkpt>
      <trkpt lat="42.95612" lon="1.82875">
        <ele>692</ele>
        <time>2014-11-09T11:38:23Z</time>
      </trkpt>
      <trkpt lat="42.95612" lon="1.82895">
        <ele>691</ele>
        <time>2014-11-09T11:38:28Z</time>
      </trkpt>
      <trkpt lat="42.95613" lon="1.82916">
        <ele>691</ele>
        <time>2014-11-09T11:38:33Z</time>
      </trkpt>
      <trkpt lat="42.95617" lon="1.82935">
        <ele>691</ele>
        <time>2014-11-09T11:38:38Z</time>
      </trkpt>
      <trkpt lat="42.95628" lon="1.82944">
        <ele>691</ele>
        <time>2014-11-09T11:38:43Z</time>
      </trkpt>
      <trkpt lat="42.95628" lon="1.82957">
        <ele>691</ele>
        <time>2014-11-09T11:38:48Z</time>
      </trkpt>
      <trkpt lat="42.95631" lon="1.82967">
        <ele>692</ele>
        <time>2014-11-09T11:38:55Z</time>
      </trkpt>
      <trkpt lat="42.95639" lon="1.82962">
        <ele>697</ele>
        <time>2014-11-09T11:39:01Z</time>
      </trkpt>
      <trkpt lat="42.95646" lon="1.82959">
        <ele>699</ele>
        <time>2014-11-09T11:39:06Z</time>
      </trkpt>
      <trkpt lat="42.9565" lon="1.82961">
        <ele>702</ele>
        <time>2014-11-09T11:39:12Z</time>
      </trkpt>
      <trkpt lat="42.95653" lon="1.82964">
        <ele>704</ele>
        <time>2014-11-09T11:39:17Z</time>
      </trkpt>
      <trkpt lat="42.95656" lon="1.82966">
        <ele>705</ele>
        <time>2014-11-09T11:39:22Z</time>
      </trkpt>
      <trkpt lat="42.95662" lon="1.82965">
        <ele>708</ele>
        <time>2014-11-09T11:39:27Z</time>
      </trkpt>
      <trkpt lat="42.95665" lon="1.82967">
        <ele>710</ele>
        <time>2014-11-09T11:39:32Z</time>
      </trkpt>
      <trkpt lat="42.9567" lon="1.82969">
        <ele>711</ele>
        <time>2014-11-09T11:39:39Z</time>
      </trkpt>
      <trkpt lat="42.95675" lon="1.82976">
        <ele>713</ele>
        <time>2014-11-09T11:39:46Z</time>
      </trkpt>
      <trkpt lat="42.95679" lon="1.82984">
        <ele>714</ele>
        <time>2014-11-09T11:39:51Z</time>
      </trkpt>
      <trkpt lat="42.95683" lon="1.8299">
        <ele>715</ele>
        <time>2014-11-09T11:39:56Z</time>
      </trkpt>
      <trkpt lat="42.95684" lon="1.83">
        <ele>717</ele>
        <time>2014-11-09T11:40:01Z</time>
      </trkpt>
      <trkpt lat="42.95688" lon="1.83008">
        <ele>717</ele>
        <time>2014-11-09T11:40:06Z</time>
      </trkpt>
      <trkpt lat="42.95691" lon="1.83017">
        <ele>717</ele>
        <time>2014-11-09T11:40:12Z</time>
      </trkpt>
      <trkpt lat="42.95694" lon="1.83027">
        <ele>717</ele>
        <time>2014-11-09T11:40:17Z</time>
      </trkpt>
      <trkpt lat="42.95695" lon="1.83039">
        <ele>718</ele>
        <time>2014-11-09T11:40:22Z</time>
      </trkpt>
      <trkpt lat="42.95698" lon="1.83048">
        <ele>719</ele>
        <time>2014-11-09T11:40:29Z</time>
      </trkpt>
      <trkpt lat="42.95705" lon="1.83049">
        <ele>719</ele>
        <time>2014-11-09T11:40:34Z</time>
      </trkpt>
      <trkpt lat="42.95707" lon="1.83058">
        <ele>720</ele>
        <time>2014-11-09T11:40:39Z</time>
      </trkpt>
      <trkpt lat="42.95707" lon="1.83073">
        <ele>720</ele>
        <time>2014-11-09T11:40:44Z</time>
      </trkpt>
      <trkpt lat="42.95705" lon="1.83088">
        <ele>720</ele>
        <time>2014-11-09T11:40:49Z</time>
      </trkpt>
      <trkpt lat="42.95704" lon="1.83109">
        <ele>720</ele>
        <time>2014-11-09T11:40:55Z</time>
      </trkpt>
      <trkpt lat="42.95701" lon="1.83127">
        <ele>722</ele>
        <time>2014-11-09T11:41:00Z</time>
      </trkpt>
      <trkpt lat="42.957" lon="1.83146">
        <ele>722</ele>
        <time>2014-11-09T11:41:05Z</time>
      </trkpt>
      <trkpt lat="42.95707" lon="1.83157">
        <ele>723</ele>
        <time>2014-11-09T11:41:10Z</time>
      </trkpt>
      <trkpt lat="42.95711" lon="1.83174">
        <ele>723</ele>
        <time>2014-11-09T11:41:15Z</time>
      </trkpt>
      <trkpt lat="42.95714" lon="1.8319">
        <ele>723</ele>
        <time>2014-11-09T11:41:20Z</time>
      </trkpt>
      <trkpt lat="42.95714" lon="1.83209">
        <ele>723</ele>
        <time>2014-11-09T11:41:25Z</time>
      </trkpt>
      <trkpt lat="42.95715" lon="1.8323">
        <ele>723</ele>
        <time>2014-11-09T11:41:30Z</time>
      </trkpt>
      <trkpt lat="42.95718" lon="1.83249">
        <ele>724</ele>
        <time>2014-11-09T11:41:35Z</time>
      </trkpt>
      <trkpt lat="42.9572" lon="1.83268">
        <ele>726</ele>
        <time>2014-11-09T11:41:40Z</time>
      </trkpt>
      <trkpt lat="42.95721" lon="1.83288">
        <ele>726</ele>
        <time>2014-11-09T11:41:46Z</time>
      </trkpt>
      <trkpt lat="42.95727" lon="1.83313">
        <ele>726</ele>
        <time>2014-11-09T11:41:51Z</time>
      </trkpt>
      <trkpt lat="42.95729" lon="1.83334">
        <ele>726</ele>
        <time>2014-11-09T11:41:56Z</time>
      </trkpt>
      <trkpt lat="42.95729" lon="1.83352">
        <ele>731</ele>
        <time>2014-11-09T11:42:01Z</time>
      </trkpt>
      <trkpt lat="42.95728" lon="1.83373">
        <ele>736</ele>
        <time>2014-11-09T11:42:06Z</time>
      </trkpt>
      <trkpt lat="42.95729" lon="1.83396">
        <ele>739</ele>
        <time>2014-11-09T11:42:11Z</time>
      </trkpt>
      <trkpt lat="42.95728" lon="1.8342">
        <ele>739</ele>
        <time>2014-11-09T11:42:16Z</time>
      </trkpt>
      <trkpt lat="42.95723" lon="1.83446">
        <ele>739</ele>
        <time>2014-11-09T11:42:22Z</time>
      </trkpt>
      <trkpt lat="42.95722" lon="1.83468">
        <ele>737</ele>
        <time>2014-11-09T11:42:27Z</time>
      </trkpt>
      <trkpt lat="42.95723" lon="1.83491">
        <ele>736</ele>
        <time>2014-11-09T11:42:32Z</time>
      </trkpt>
      <trkpt lat="42.95721" lon="1.83514">
        <ele>736</ele>
        <time>2014-11-09T11:42:37Z</time>
      </trkpt>
      <trkpt lat="42.95724" lon="1.83533">
        <ele>736</ele>
        <time>2014-11-09T11:42:42Z</time>
      </trkpt>
      <trkpt lat="42.95723" lon="1.83555">
        <ele>736</ele>
        <time>2014-11-09T11:42:47Z</time>
      </trkpt>
      <trkpt lat="42.95719" lon="1.83579">
        <ele>735</ele>
        <time>2014-11-09T11:42:52Z</time>
      </trkpt>
      <trkpt lat="42.95716" lon="1.83602">
        <ele>734</ele>
        <time>2014-11-09T11:42:57Z</time>
      </trkpt>
      <trkpt lat="42.95711" lon="1.83623">
        <ele>734</ele>
        <time>2014-11-09T11:43:02Z</time>
      </trkpt>
      <trkpt lat="42.95708" lon="1.83648">
        <ele>734</ele>
        <time>2014-11-09T11:43:07Z</time>
      </trkpt>
      <trkpt lat="42.95708" lon="1.83671">
        <ele>734</ele>
        <time>2014-11-09T11:43:12Z</time>
      </trkpt>
      <trkpt lat="42.95713" lon="1.837">
        <ele>734</ele>
        <time>2014-11-09T11:43:18Z</time>
      </trkpt>
      <trkpt lat="42.95719" lon="1.83723">
        <ele>734</ele>
        <time>2014-11-09T11:43:23Z</time>
      </trkpt>
      <trkpt lat="42.95722" lon="1.83746">
        <ele>733</ele>
        <time>2014-11-09T11:43:28Z</time>
      </trkpt>
      <trkpt lat="42.95723" lon="1.83768">
        <ele>731</ele>
        <time>2014-11-09T11:43:33Z</time>
      </trkpt>
      <trkpt lat="42.95723" lon="1.83793">
        <ele>728</ele>
        <time>2014-11-09T11:43:38Z</time>
      </trkpt>
      <trkpt lat="42.95722" lon="1.83818">
        <ele>726</ele>
        <time>2014-11-09T11:43:43Z</time>
      </trkpt>
      <trkpt lat="42.95722" lon="1.83844">
        <ele>723</ele>
        <time>2014-11-09T11:43:48Z</time>
      </trkpt>
      <trkpt lat="42.95726" lon="1.83869">
        <ele>721</ele>
        <time>2014-11-09T11:43:53Z</time>
      </trkpt>
      <trkpt lat="42.95728" lon="1.83895">
        <ele>718</ele>
        <time>2014-11-09T11:43:58Z</time>
      </trkpt>
      <trkpt lat="42.95724" lon="1.83919">
        <ele>717</ele>
        <time>2014-11-09T11:44:03Z</time>
      </trkpt>
      <trkpt lat="42.95722" lon="1.83943">
        <ele>714</ele>
        <time>2014-11-09T11:44:08Z</time>
      </trkpt>
      <trkpt lat="42.95717" lon="1.8397">
        <ele>712</ele>
        <time>2014-11-09T11:44:13Z</time>
      </trkpt>
      <trkpt lat="42.95715" lon="1.84">
        <ele>711</ele>
        <time>2014-11-09T11:44:19Z</time>
      </trkpt>
      <trkpt lat="42.95714" lon="1.84026">
        <ele>709</ele>
        <time>2014-11-09T11:44:24Z</time>
      </trkpt>
      <trkpt lat="42.95712" lon="1.8405">
        <ele>707</ele>
        <time>2014-11-09T11:44:29Z</time>
      </trkpt>
      <trkpt lat="42.95712" lon="1.84075">
        <ele>706</ele>
        <time>2014-11-09T11:44:34Z</time>
      </trkpt>
      <trkpt lat="42.95713" lon="1.84101">
        <ele>704</ele>
        <time>2014-11-09T11:44:39Z</time>
      </trkpt>
      <trkpt lat="42.95713" lon="1.84126">
        <ele>703</ele>
        <time>2014-11-09T11:44:44Z</time>
      </trkpt>
      <trkpt lat="42.95715" lon="1.84152">
        <ele>702</ele>
        <time>2014-11-09T11:44:49Z</time>
      </trkpt>
      <trkpt lat="42.95716" lon="1.84179">
        <ele>699</ele>
        <time>2014-11-09T11:44:54Z</time>
      </trkpt>
      <trkpt lat="42.95715" lon="1.84203">
        <ele>698</ele>
        <time>2014-11-09T11:44:59Z</time>
      </trkpt>
      <trkpt lat="42.9572" lon="1.84228">
        <ele>698</ele>
        <time>2014-11-09T11:45:04Z</time>
      </trkpt>
      <trkpt lat="42.95723" lon="1.84251">
        <ele>699</ele>
        <time>2014-11-09T11:45:09Z</time>
      </trkpt>
      <trkpt lat="42.95722" lon="1.84276">
        <ele>699</ele>
        <time>2014-11-09T11:45:14Z</time>
      </trkpt>
      <trkpt lat="42.95721" lon="1.84303">
        <ele>699</ele>
        <time>2014-11-09T11:45:19Z</time>
      </trkpt>
      <trkpt lat="42.95723" lon="1.84335">
        <ele>699</ele>
        <time>2014-11-09T11:45:25Z</time>
      </trkpt>
      <trkpt lat="42.95722" lon="1.84361">
        <ele>698</ele>
        <time>2014-11-09T11:45:30Z</time>
      </trkpt>
      <trkpt lat="42.95721" lon="1.84388">
        <ele>694</ele>
        <time>2014-11-09T11:45:35Z</time>
      </trkpt>
      <trkpt lat="42.95718" lon="1.84421">
        <ele>690</ele>
        <time>2014-11-09T11:45:41Z</time>
      </trkpt>
      <trkpt lat="42.95722" lon="1.84443">
        <ele>689</ele>
        <time>2014-11-09T11:45:46Z</time>
      </trkpt>
      <trkpt lat="42.95726" lon="1.84459">
        <ele>690</ele>
        <time>2014-11-09T11:45:51Z</time>
      </trkpt>
      <trkpt lat="42.95724" lon="1.8449">
        <ele>690</ele>
        <time>2014-11-09T11:45:57Z</time>
      </trkpt>
      <trkpt lat="42.95722" lon="1.84516">
        <ele>689</ele>
        <time>2014-11-09T11:46:02Z</time>
      </trkpt>
      <trkpt lat="42.9572" lon="1.84542">
        <ele>686</ele>
        <time>2014-11-09T11:46:07Z</time>
      </trkpt>
      <trkpt lat="42.9572" lon="1.84569">
        <ele>683</ele>
        <time>2014-11-09T11:46:12Z</time>
      </trkpt>
      <trkpt lat="42.95718" lon="1.84594">
        <ele>680</ele>
        <time>2014-11-09T11:46:17Z</time>
      </trkpt>
      <trkpt lat="42.95717" lon="1.84619">
        <ele>677</ele>
        <time>2014-11-09T11:46:22Z</time>
      </trkpt>
      <trkpt lat="42.95716" lon="1.84645">
        <ele>675</ele>
        <time>2014-11-09T11:46:27Z</time>
      </trkpt>
      <trkpt lat="42.95713" lon="1.84668">
        <ele>674</ele>
        <time>2014-11-09T11:46:32Z</time>
      </trkpt>
      <trkpt lat="42.95713" lon="1.84689">
        <ele>673</ele>
        <time>2014-11-09T11:46:37Z</time>
      </trkpt>
      <trkpt lat="42.95713" lon="1.84712">
        <ele>670</ele>
        <time>2014-11-09T11:46:42Z</time>
      </trkpt>
      <trkpt lat="42.95716" lon="1.84735">
        <ele>669</ele>
        <time>2014-11-09T11:46:47Z</time>
      </trkpt>
      <trkpt lat="42.95716" lon="1.84758">
        <ele>668</ele>
        <time>2014-11-09T11:46:52Z</time>
      </trkpt>
      <trkpt lat="42.95718" lon="1.8478">
        <ele>667</ele>
        <time>2014-11-09T11:46:57Z</time>
      </trkpt>
      <trkpt lat="42.95722" lon="1.84795">
        <ele>667</ele>
        <time>2014-11-09T11:47:02Z</time>
      </trkpt>
      <trkpt lat="42.95721" lon="1.84812">
        <ele>668</ele>
        <time>2014-11-09T11:47:07Z</time>
      </trkpt>
      <trkpt lat="42.95722" lon="1.84833">
        <ele>668</ele>
        <time>2014-11-09T11:47:12Z</time>
      </trkpt>
      <trkpt lat="42.9572" lon="1.84853">
        <ele>668</ele>
        <time>2014-11-09T11:47:17Z</time>
      </trkpt>
      <trkpt lat="42.9573" lon="1.84869">
        <ele>668</ele>
        <time>2014-11-09T11:47:22Z</time>
      </trkpt>
      <trkpt lat="42.95731" lon="1.84888">
        <ele>668</ele>
        <time>2014-11-09T11:47:27Z</time>
      </trkpt>
      <trkpt lat="42.95731" lon="1.849">
        <ele>669</ele>
        <time>2014-11-09T11:47:32Z</time>
      </trkpt>
      <trkpt lat="42.95731" lon="1.84916">
        <ele>670</ele>
        <time>2014-11-09T11:47:37Z</time>
      </trkpt>
      <trkpt lat="42.95732" lon="1.84932">
        <ele>670</ele>
        <time>2014-11-09T11:47:42Z</time>
      </trkpt>
      <trkpt lat="42.95732" lon="1.84944">
        <ele>670</ele>
        <time>2014-11-09T11:47:47Z</time>
      </trkpt>
      <trkpt lat="42.95731" lon="1.8496">
        <ele>670</ele>
        <time>2014-11-09T11:47:53Z</time>
      </trkpt>
      <trkpt lat="42.95732" lon="1.84973">
        <ele>669</ele>
        <time>2014-11-09T11:47:58Z</time>
      </trkpt>
      <trkpt lat="42.95729" lon="1.84984">
        <ele>668</ele>
        <time>2014-11-09T11:48:03Z</time>
      </trkpt>
      <trkpt lat="42.95728" lon="1.85001">
        <ele>668</ele>
        <time>2014-11-09T11:48:08Z</time>
      </trkpt>
      <trkpt lat="42.95726" lon="1.85016">
        <ele>668</ele>
        <time>2014-11-09T11:48:13Z</time>
      </trkpt>
      <trkpt lat="42.95727" lon="1.85033">
        <ele>667</ele>
        <time>2014-11-09T11:48:18Z</time>
      </trkpt>
      <trkpt lat="42.95731" lon="1.85049">
        <ele>665</ele>
        <time>2014-11-09T11:48:23Z</time>
      </trkpt>
      <trkpt lat="42.95729" lon="1.8506">
        <ele>665</ele>
        <time>2014-11-09T11:48:28Z</time>
      </trkpt>
      <trkpt lat="42.95725" lon="1.85076">
        <ele>665</ele>
        <time>2014-11-09T11:48:33Z</time>
      </trkpt>
      <trkpt lat="42.95722" lon="1.85096">
        <ele>665</ele>
        <time>2014-11-09T11:48:38Z</time>
      </trkpt>
      <trkpt lat="42.95719" lon="1.8511">
        <ele>665</ele>
        <time>2014-11-09T11:48:43Z</time>
      </trkpt>
      <trkpt lat="42.95717" lon="1.85125">
        <ele>665</ele>
        <time>2014-11-09T11:48:48Z</time>
      </trkpt>
      <trkpt lat="42.95715" lon="1.85139">
        <ele>665</ele>
        <time>2014-11-09T11:48:53Z</time>
      </trkpt>
      <trkpt lat="42.95713" lon="1.8516">
        <ele>665</ele>
        <time>2014-11-09T11:48:58Z</time>
      </trkpt>
      <trkpt lat="42.9571" lon="1.8518">
        <ele>665</ele>
        <time>2014-11-09T11:49:03Z</time>
      </trkpt>
      <trkpt lat="42.95709" lon="1.85195">
        <ele>666</ele>
        <time>2014-11-09T11:49:08Z</time>
      </trkpt>
      <trkpt lat="42.9571" lon="1.85211">
        <ele>667</ele>
        <time>2014-11-09T11:49:13Z</time>
      </trkpt>
      <trkpt lat="42.95709" lon="1.85225">
        <ele>668</ele>
        <time>2014-11-09T11:49:18Z</time>
      </trkpt>
      <trkpt lat="42.95705" lon="1.85242">
        <ele>668</ele>
        <time>2014-11-09T11:49:24Z</time>
      </trkpt>
      <trkpt lat="42.95703" lon="1.85254">
        <ele>668</ele>
        <time>2014-11-09T11:49:30Z</time>
      </trkpt>
      <trkpt lat="42.95702" lon="1.85268">
        <ele>665</ele>
        <time>2014-11-09T11:49:35Z</time>
      </trkpt>
      <trkpt lat="42.95699" lon="1.85281">
        <ele>663</ele>
        <time>2014-11-09T11:49:41Z</time>
      </trkpt>
      <trkpt lat="42.95699" lon="1.85296">
        <ele>663</ele>
        <time>2014-11-09T11:49:46Z</time>
      </trkpt>
      <trkpt lat="42.95699" lon="1.85311">
        <ele>662</ele>
        <time>2014-11-09T11:49:51Z</time>
      </trkpt>
      <trkpt lat="42.95698" lon="1.85327">
        <ele>661</ele>
        <time>2014-11-09T11:49:57Z</time>
      </trkpt>
      <trkpt lat="42.95696" lon="1.85349">
        <ele>660</ele>
        <time>2014-11-09T11:50:02Z</time>
      </trkpt>
      <trkpt lat="42.95695" lon="1.85371">
        <ele>660</ele>
        <time>2014-11-09T11:50:07Z</time>
      </trkpt>
      <trkpt lat="42.95694" lon="1.85392">
        <ele>657</ele>
        <time>2014-11-09T11:50:12Z</time>
      </trkpt>
      <trkpt lat="42.95691" lon="1.85416">
        <ele>655</ele>
        <time>2014-11-09T11:50:17Z</time>
      </trkpt>
      <trkpt lat="42.9569" lon="1.85439">
        <ele>650</ele>
        <time>2014-11-09T11:50:22Z</time>
      </trkpt>
      <trkpt lat="42.95696" lon="1.85445">
        <ele>647</ele>
        <time>2014-11-09T11:50:27Z</time>
      </trkpt>
      <trkpt lat="42.95695" lon="1.85463">
        <ele>647</ele>
        <time>2014-11-09T11:50:32Z</time>
      </trkpt>
      <trkpt lat="42.95695" lon="1.85482">
        <ele>646</ele>
        <time>2014-11-09T11:50:37Z</time>
      </trkpt>
      <trkpt lat="42.95697" lon="1.85501">
        <ele>645</ele>
        <time>2014-11-09T11:50:42Z</time>
      </trkpt>
      <trkpt lat="42.95697" lon="1.8552">
        <ele>643</ele>
        <time>2014-11-09T11:50:47Z</time>
      </trkpt>
      <trkpt lat="42.95697" lon="1.8553">
        <ele>641</ele>
        <time>2014-11-09T11:50:52Z</time>
      </trkpt>
      <trkpt lat="42.95696" lon="1.85544">
        <ele>640</ele>
        <time>2014-11-09T11:50:57Z</time>
      </trkpt>
      <trkpt lat="42.95694" lon="1.85561">
        <ele>639</ele>
        <time>2014-11-09T11:51:02Z</time>
      </trkpt>
      <trkpt lat="42.95693" lon="1.85579">
        <ele>637</ele>
        <time>2014-11-09T11:51:07Z</time>
      </trkpt>
      <trkpt lat="42.95694" lon="1.85597">
        <ele>636</ele>
        <time>2014-11-09T11:51:12Z</time>
      </trkpt>
      <trkpt lat="42.95691" lon="1.85611">
        <ele>635</ele>
        <time>2014-11-09T11:51:17Z</time>
      </trkpt>
      <trkpt lat="42.95691" lon="1.85629">
        <ele>634</ele>
        <time>2014-11-09T11:51:22Z</time>
      </trkpt>
      <trkpt lat="42.95691" lon="1.85645">
        <ele>634</ele>
        <time>2014-11-09T11:51:27Z</time>
      </trkpt>
      <trkpt lat="42.95691" lon="1.85658">
        <ele>632</ele>
        <time>2014-11-09T11:51:33Z</time>
      </trkpt>
      <trkpt lat="42.95692" lon="1.85671">
        <ele>632</ele>
        <time>2014-11-09T11:51:38Z</time>
      </trkpt>
      <trkpt lat="42.95694" lon="1.85683">
        <ele>630</ele>
        <time>2014-11-09T11:51:43Z</time>
      </trkpt>
      <trkpt lat="42.95697" lon="1.85695">
        <ele>629</ele>
        <time>2014-11-09T11:51:48Z</time>
      </trkpt>
      <trkpt lat="42.95696" lon="1.85712">
        <ele>628</ele>
        <time>2014-11-09T11:51:53Z</time>
      </trkpt>
      <trkpt lat="42.95693" lon="1.85728">
        <ele>628</ele>
        <time>2014-11-09T11:51:58Z</time>
      </trkpt>
      <trkpt lat="42.95687" lon="1.85744">
        <ele>628</ele>
        <time>2014-11-09T11:52:03Z</time>
      </trkpt>
      <trkpt lat="42.95685" lon="1.85757">
        <ele>624</ele>
        <time>2014-11-09T11:52:08Z</time>
      </trkpt>
      <trkpt lat="42.95686" lon="1.8577">
        <ele>619</ele>
        <time>2014-11-09T11:52:13Z</time>
      </trkpt>
      <trkpt lat="42.95688" lon="1.85789">
        <ele>616</ele>
        <time>2014-11-09T11:52:18Z</time>
      </trkpt>
      <trkpt lat="42.95692" lon="1.85809">
        <ele>613</ele>
        <time>2014-11-09T11:52:23Z</time>
      </trkpt>
      <trkpt lat="42.95694" lon="1.85826">
        <ele>608</ele>
        <time>2014-11-09T11:52:29Z</time>
      </trkpt>
      <trkpt lat="42.95698" lon="1.85836">
        <ele>606</ele>
        <time>2014-11-09T11:52:34Z</time>
      </trkpt>
      <trkpt lat="42.95699" lon="1.85854">
        <ele>602</ele>
        <time>2014-11-09T11:52:39Z</time>
      </trkpt>
      <trkpt lat="42.95696" lon="1.85874">
        <ele>601</ele>
        <time>2014-11-09T11:52:44Z</time>
      </trkpt>
      <trkpt lat="42.95694" lon="1.85882">
        <ele>599</ele>
        <time>2014-11-09T11:52:49Z</time>
      </trkpt>
      <trkpt lat="42.95692" lon="1.85897">
        <ele>597</ele>
        <time>2014-11-09T11:52:54Z</time>
      </trkpt>
      <trkpt lat="42.95693" lon="1.85909">
        <ele>595</ele>
        <time>2014-11-09T11:52:59Z</time>
      </trkpt>
      <trkpt lat="42.95704" lon="1.85916">
        <ele>592</ele>
        <time>2014-11-09T11:53:05Z</time>
      </trkpt>
      <trkpt lat="42.95712" lon="1.85921">
        <ele>590</ele>
        <time>2014-11-09T11:53:10Z</time>
      </trkpt>
      <trkpt lat="42.95718" lon="1.85928">
        <ele>588</ele>
        <time>2014-11-09T11:53:15Z</time>
      </trkpt>
      <trkpt lat="42.95724" lon="1.85935">
        <ele>584</ele>
        <time>2014-11-09T11:53:20Z</time>
      </trkpt>
      <trkpt lat="42.95726" lon="1.85949">
        <ele>580</ele>
        <time>2014-11-09T11:53:25Z</time>
      </trkpt>
      <trkpt lat="42.95729" lon="1.85964">
        <ele>577</ele>
        <time>2014-11-09T11:53:30Z</time>
      </trkpt>
      <trkpt lat="42.95729" lon="1.8598">
        <ele>574</ele>
        <time>2014-11-09T11:53:35Z</time>
      </trkpt>
      <trkpt lat="42.95729" lon="1.85995">
        <ele>569</ele>
        <time>2014-11-09T11:53:40Z</time>
      </trkpt>
      <trkpt lat="42.95731" lon="1.86007">
        <ele>565</ele>
        <time>2014-11-09T11:53:45Z</time>
      </trkpt>
      <trkpt lat="42.95731" lon="1.86023">
        <ele>562</ele>
        <time>2014-11-09T11:53:50Z</time>
      </trkpt>
      <trkpt lat="42.95729" lon="1.8604">
        <ele>559</ele>
        <time>2014-11-09T11:53:55Z</time>
      </trkpt>
      <trkpt lat="42.95728" lon="1.86054">
        <ele>556</ele>
        <time>2014-11-09T11:54:00Z</time>
      </trkpt>
      <trkpt lat="42.95726" lon="1.8607">
        <ele>552</ele>
        <time>2014-11-09T11:54:05Z</time>
      </trkpt>
      <trkpt lat="42.95725" lon="1.86085">
        <ele>548</ele>
        <time>2014-11-09T11:54:10Z</time>
      </trkpt>
      <trkpt lat="42.95724" lon="1.86099">
        <ele>544</ele>
        <time>2014-11-09T11:54:15Z</time>
      </trkpt>
      <trkpt lat="42.95725" lon="1.86113">
        <ele>540</ele>
        <time>2014-11-09T11:54:20Z</time>
      </trkpt>
      <trkpt lat="42.95721" lon="1.86127">
        <ele>537</ele>
        <time>2014-11-09T11:54:25Z</time>
      </trkpt>
      <trkpt lat="42.9572" lon="1.86142">
        <ele>534</ele>
        <time>2014-11-09T11:54:30Z</time>
      </trkpt>
      <trkpt lat="42.95721" lon="1.86157">
        <ele>530</ele>
        <time>2014-11-09T11:54:35Z</time>
      </trkpt>
      <trkpt lat="42.9572" lon="1.8617">
        <ele>526</ele>
        <time>2014-11-09T11:54:40Z</time>
      </trkpt>
      <trkpt lat="42.95725" lon="1.8618">
        <ele>522</ele>
        <time>2014-11-09T11:54:45Z</time>
      </trkpt>
      <trkpt lat="42.95724" lon="1.86196">
        <ele>517</ele>
        <time>2014-11-09T11:54:51Z</time>
      </trkpt>
      <trkpt lat="42.95725" lon="1.86211">
        <ele>512</ele>
        <time>2014-11-09T11:54:56Z</time>
      </trkpt>
      <trkpt lat="42.95736" lon="1.86219">
        <ele>508</ele>
        <time>2014-11-09T11:55:02Z</time>
      </trkpt>
      <trkpt lat="42.95744" lon="1.86217">
        <ele>505</ele>
        <time>2014-11-09T11:55:07Z</time>
      </trkpt>
      <trkpt lat="42.95751" lon="1.86222">
        <ele>500</ele>
        <time>2014-11-09T11:55:13Z</time>
      </trkpt>
      <trkpt lat="42.95761" lon="1.86224">
        <ele>495</ele>
        <time>2014-11-09T11:55:19Z</time>
      </trkpt>
      <trkpt lat="42.9577" lon="1.86229">
        <ele>492</ele>
        <time>2014-11-09T11:55:24Z</time>
      </trkpt>
      <trkpt lat="42.95779" lon="1.86228">
        <ele>488</ele>
        <time>2014-11-09T11:55:29Z</time>
      </trkpt>
      <trkpt lat="42.95786" lon="1.86224">
        <ele>486</ele>
        <time>2014-11-09T11:55:34Z</time>
      </trkpt>
      <trkpt lat="42.95794" lon="1.86219">
        <ele>483</ele>
        <time>2014-11-09T11:55:39Z</time>
      </trkpt>
      <trkpt lat="42.95801" lon="1.86228">
        <ele>480</ele>
        <time>2014-11-09T11:55:44Z</time>
      </trkpt>
      <trkpt lat="42.95809" lon="1.86242">
        <ele>476</ele>
        <time>2014-11-09T11:55:50Z</time>
      </trkpt>
      <trkpt lat="42.95803" lon="1.86264">
        <ele>474</ele>
        <time>2014-11-09T11:55:55Z</time>
      </trkpt>
      <trkpt lat="42.95797" lon="1.86288">
        <ele>470</ele>
        <time>2014-11-09T11:56:00Z</time>
      </trkpt>
      <trkpt lat="42.95794" lon="1.86306">
        <ele>467</ele>
        <time>2014-11-09T11:56:05Z</time>
      </trkpt>
      <trkpt lat="42.95816" lon="1.86284">
        <ele>465</ele>
        <time>2014-11-09T11:56:10Z</time>
      </trkpt>
    </trkseg>
  </trk>
</gpx>